<?xml version="1.0" encoding="UTF-8" standalone="no" ?>
<gpx xmlns="http://www.topografix.com/GPX/1/1" xmlns:xsi="http://www.w3.org/2001/XMLSchema-instance" xsi:schemaLocation="http://www.topografix.com/GPX/1/1 http://www.topografix.com/GPX/1/1/gpx.xsd" version="1.1" creator="VisuGPX - https://www.visugpx.com">
  <metadata>
    <name>Ultra-Trail® du Haut-Giffre 2023 - Tour de Bostan</name>
    <desc><![CDATA[Parcours créé sur Trace de Trail]]></desc>
  </metadata>
  <trk>
    <name><![CDATA[Ultra-Trail® du Haut-Giffre 2023 - Tour de Bostan_1]]></name>
    <extensions>
      <line xmlns="http://www.topografix.com/GPX/gpx_style/0/2">
        <color>0000FF</color>
        <width>4</width>
          <extensions>
            <sens>1</sens>
          </extensions>
      </line>
    </extensions>
    <trkseg>
      <trkpt lat="46.08336" lon="6.72693">
        <ele>703</ele>
        <time>2024-05-14T11:51:35.000Z</time>
      </trkpt>
      <trkpt lat="46.08327" lon="6.72719">
        <ele>703</ele>
        <time>2024-05-14T11:51:46.453Z</time>
      </trkpt>
      <trkpt lat="46.08296" lon="6.72715">
        <ele>703</ele>
        <time>2024-05-14T11:52:04.138Z</time>
      </trkpt>
      <trkpt lat="46.08272" lon="6.72706">
        <ele>703</ele>
        <time>2024-05-14T11:52:18.230Z</time>
      </trkpt>
      <trkpt lat="46.08253" lon="6.72704">
        <ele>703</ele>
        <time>2024-05-14T11:52:29.055Z</time>
      </trkpt>
      <trkpt lat="46.0823" lon="6.72708">
        <ele>703</ele>
        <time>2024-05-14T11:52:42.219Z</time>
      </trkpt>
      <trkpt lat="46.08209" lon="6.72712">
        <ele>703</ele>
        <time>2024-05-14T11:52:54.256Z</time>
      </trkpt>
      <trkpt lat="46.08179" lon="6.72714">
        <ele>703</ele>
        <time>2024-05-14T11:53:11.321Z</time>
      </trkpt>
      <trkpt lat="46.08151" lon="6.72713">
        <ele>703</ele>
        <time>2024-05-14T11:53:27.237Z</time>
      </trkpt>
      <trkpt lat="46.08132" lon="6.72714">
        <ele>703</ele>
        <time>2024-05-14T11:53:38.040Z</time>
      </trkpt>
      <trkpt lat="46.08096" lon="6.72717">
        <ele>703</ele>
        <time>2024-05-14T11:53:58.531Z</time>
      </trkpt>
      <trkpt lat="46.08084" lon="6.72695">
        <ele>703</ele>
        <time>2024-05-14T11:54:09.562Z</time>
      </trkpt>
      <trkpt lat="46.08088" lon="6.72659">
        <ele>702</ele>
        <time>2024-05-14T11:54:22.323Z</time>
      </trkpt>
      <trkpt lat="46.08104" lon="6.72629">
        <ele>701</ele>
        <time>2024-05-14T11:54:35.624Z</time>
      </trkpt>
      <trkpt lat="46.08125" lon="6.7259">
        <ele>700</ele>
        <time>2024-05-14T11:54:53.440Z</time>
      </trkpt>
      <trkpt lat="46.0816" lon="6.72526">
        <ele>699</ele>
        <time>2024-05-14T11:55:23.878Z</time>
      </trkpt>
      <trkpt lat="46.08175" lon="6.72499">
        <ele>699</ele>
        <time>2024-05-14T11:55:37.513Z</time>
      </trkpt>
      <trkpt lat="46.08192" lon="6.72468">
        <ele>699</ele>
        <time>2024-05-14T11:55:53.089Z</time>
      </trkpt>
      <trkpt lat="46.08219" lon="6.72418">
        <ele>698</ele>
        <time>2024-05-14T11:56:16.397Z</time>
      </trkpt>
      <trkpt lat="46.08231" lon="6.72405">
        <ele>698</ele>
        <time>2024-05-14T11:56:24.927Z</time>
      </trkpt>
      <trkpt lat="46.0826" lon="6.72433">
        <ele>698</ele>
        <time>2024-05-14T11:56:44.759Z</time>
      </trkpt>
      <trkpt lat="46.08276" lon="6.72447">
        <ele>698</ele>
        <time>2024-05-14T11:56:55.395Z</time>
      </trkpt>
      <trkpt lat="46.08315" lon="6.72482">
        <ele>699</ele>
        <time>2024-05-14T11:57:23.333Z</time>
      </trkpt>
      <trkpt lat="46.08345" lon="6.72507">
        <ele>700</ele>
        <time>2024-05-14T11:57:44.887Z</time>
      </trkpt>
      <trkpt lat="46.08361" lon="6.72523">
        <ele>701</ele>
        <time>2024-05-14T11:57:57.914Z</time>
      </trkpt>
      <trkpt lat="46.08367" lon="6.72549">
        <ele>701</ele>
        <time>2024-05-14T11:58:08.714Z</time>
      </trkpt>
      <trkpt lat="46.08372" lon="6.72583">
        <ele>701</ele>
        <time>2024-05-14T11:58:22.412Z</time>
      </trkpt>
      <trkpt lat="46.08374" lon="6.72618">
        <ele>702</ele>
        <time>2024-05-14T11:58:38.170Z</time>
      </trkpt>
      <trkpt lat="46.08368" lon="6.72647">
        <ele>702</ele>
        <time>2024-05-14T11:58:50.097Z</time>
      </trkpt>
      <trkpt lat="46.0837" lon="6.72675">
        <ele>702</ele>
        <time>2024-05-14T11:59:01.191Z</time>
      </trkpt>
      <trkpt lat="46.08391" lon="6.72691">
        <ele>705</ele>
        <time>2024-05-14T11:59:21.756Z</time>
      </trkpt>
      <trkpt lat="46.08387" lon="6.72738">
        <ele>705</ele>
        <time>2024-05-14T11:59:40.419Z</time>
      </trkpt>
      <trkpt lat="46.08387" lon="6.72768">
        <ele>705</ele>
        <time>2024-05-14T11:59:52.243Z</time>
      </trkpt>
      <trkpt lat="46.08392" lon="6.72793">
        <ele>706</ele>
        <time>2024-05-14T12:00:04.479Z</time>
      </trkpt>
      <trkpt lat="46.08413" lon="6.72793">
        <ele>708</ele>
        <time>2024-05-14T12:00:20.770Z</time>
      </trkpt>
      <trkpt lat="46.08421" lon="6.72775">
        <ele>710</ele>
        <time>2024-05-14T12:00:34.013Z</time>
      </trkpt>
      <trkpt lat="46.08434" lon="6.72764">
        <ele>715</ele>
        <time>2024-05-14T12:01:03.553Z</time>
      </trkpt>
      <trkpt lat="46.08454" lon="6.72778">
        <ele>722</ele>
        <time>2024-05-14T12:01:44.169Z</time>
      </trkpt>
      <trkpt lat="46.08474" lon="6.7278">
        <ele>730</ele>
        <time>2024-05-14T12:02:35.534Z</time>
      </trkpt>
      <trkpt lat="46.08495" lon="6.72794">
        <ele>733</ele>
        <time>2024-05-14T12:02:55.810Z</time>
      </trkpt>
      <trkpt lat="46.08506" lon="6.72775">
        <ele>740</ele>
        <time>2024-05-14T12:03:41.219Z</time>
      </trkpt>
      <trkpt lat="46.08507" lon="6.7273">
        <ele>746</ele>
        <time>2024-05-14T12:04:15.814Z</time>
      </trkpt>
      <trkpt lat="46.08526" lon="6.72733">
        <ele>752</ele>
        <time>2024-05-14T12:04:50.596Z</time>
      </trkpt>
      <trkpt lat="46.08555" lon="6.72746">
        <ele>759</ele>
        <time>2024-05-14T12:05:29.757Z</time>
      </trkpt>
      <trkpt lat="46.08583" lon="6.7275">
        <ele>766</ele>
        <time>2024-05-14T12:06:08.835Z</time>
      </trkpt>
      <trkpt lat="46.08601" lon="6.7274">
        <ele>771</ele>
        <time>2024-05-14T12:06:36.794Z</time>
      </trkpt>
      <trkpt lat="46.08608" lon="6.7271">
        <ele>772</ele>
        <time>2024-05-14T12:06:51.205Z</time>
      </trkpt>
      <trkpt lat="46.0863" lon="6.7272">
        <ele>776</ele>
        <time>2024-05-14T12:07:14.985Z</time>
      </trkpt>
      <trkpt lat="46.08646" lon="6.72749">
        <ele>779</ele>
        <time>2024-05-14T12:07:36.487Z</time>
      </trkpt>
      <trkpt lat="46.08655" lon="6.7273">
        <ele>781</ele>
        <time>2024-05-14T12:07:50.255Z</time>
      </trkpt>
      <trkpt lat="46.08669" lon="6.72687">
        <ele>783</ele>
        <time>2024-05-14T12:08:12.987Z</time>
      </trkpt>
      <trkpt lat="46.08682" lon="6.72673">
        <ele>786</ele>
        <time>2024-05-14T12:08:30.466Z</time>
      </trkpt>
      <trkpt lat="46.08694" lon="6.72707">
        <ele>786</ele>
        <time>2024-05-14T12:08:45.501Z</time>
      </trkpt>
      <trkpt lat="46.0869" lon="6.7274">
        <ele>786</ele>
        <time>2024-05-14T12:08:58.704Z</time>
      </trkpt>
      <trkpt lat="46.08694" lon="6.72777">
        <ele>785</ele>
        <time>2024-05-14T12:09:11.849Z</time>
      </trkpt>
      <trkpt lat="46.08687" lon="6.72821">
        <ele>785</ele>
        <time>2024-05-14T12:09:29.640Z</time>
      </trkpt>
      <trkpt lat="46.08683" lon="6.72853">
        <ele>785</ele>
        <time>2024-05-14T12:09:42.455Z</time>
      </trkpt>
      <trkpt lat="46.08686" lon="6.72886">
        <ele>785</ele>
        <time>2024-05-14T12:09:55.572Z</time>
      </trkpt>
      <trkpt lat="46.08684" lon="6.72939">
        <ele>785</ele>
        <time>2024-05-14T12:10:16.490Z</time>
      </trkpt>
      <trkpt lat="46.08695" lon="6.72971">
        <ele>792</ele>
        <time>2024-05-14T12:10:56.044Z</time>
      </trkpt>
      <trkpt lat="46.08712" lon="6.72962">
        <ele>798</ele>
        <time>2024-05-14T12:11:31.475Z</time>
      </trkpt>
      <trkpt lat="46.08733" lon="6.72947">
        <ele>802</ele>
        <time>2024-05-14T12:11:55.386Z</time>
      </trkpt>
      <trkpt lat="46.0873" lon="6.72978">
        <ele>803</ele>
        <time>2024-05-14T12:12:09.660Z</time>
      </trkpt>
      <trkpt lat="46.0873" lon="6.73013">
        <ele>812</ele>
        <time>2024-05-14T12:13:05.437Z</time>
      </trkpt>
      <trkpt lat="46.08737" lon="6.73045">
        <ele>823</ele>
        <time>2024-05-14T12:14:14.861Z</time>
      </trkpt>
      <trkpt lat="46.08742" lon="6.73084">
        <ele>837</ele>
        <time>2024-05-14T12:15:36.922Z</time>
      </trkpt>
      <trkpt lat="46.08748" lon="6.73139">
        <ele>838</ele>
        <time>2024-05-14T12:16:00.715Z</time>
      </trkpt>
      <trkpt lat="46.08762" lon="6.73178">
        <ele>844</ele>
        <time>2024-05-14T12:16:35.102Z</time>
      </trkpt>
      <trkpt lat="46.08779" lon="6.73218">
        <ele>844</ele>
        <time>2024-05-14T12:16:53.591Z</time>
      </trkpt>
      <trkpt lat="46.088" lon="6.73244">
        <ele>848</ele>
        <time>2024-05-14T12:17:19.199Z</time>
      </trkpt>
      <trkpt lat="46.08817" lon="6.73271">
        <ele>849</ele>
        <time>2024-05-14T12:17:35.480Z</time>
      </trkpt>
      <trkpt lat="46.0883" lon="6.73297">
        <ele>855</ele>
        <time>2024-05-14T12:18:09.157Z</time>
      </trkpt>
      <trkpt lat="46.08856" lon="6.73319">
        <ele>856</ele>
        <time>2024-05-14T12:18:28.169Z</time>
      </trkpt>
      <trkpt lat="46.08875" lon="6.73337">
        <ele>860</ele>
        <time>2024-05-14T12:18:51.833Z</time>
      </trkpt>
      <trkpt lat="46.08892" lon="6.73348">
        <ele>867</ele>
        <time>2024-05-14T12:19:35.488Z</time>
      </trkpt>
      <trkpt lat="46.0889" lon="6.73327">
        <ele>869</ele>
        <time>2024-05-14T12:19:48.673Z</time>
      </trkpt>
      <trkpt lat="46.08879" lon="6.73293">
        <ele>871</ele>
        <time>2024-05-14T12:20:07.627Z</time>
      </trkpt>
      <trkpt lat="46.08871" lon="6.73266">
        <ele>874</ele>
        <time>2024-05-14T12:20:26.662Z</time>
      </trkpt>
      <trkpt lat="46.08859" lon="6.73223">
        <ele>877</ele>
        <time>2024-05-14T12:20:51.436Z</time>
      </trkpt>
      <trkpt lat="46.08857" lon="6.73193">
        <ele>881</ele>
        <time>2024-05-14T12:21:14.524Z</time>
      </trkpt>
      <trkpt lat="46.0888" lon="6.73205">
        <ele>893</ele>
        <time>2024-05-14T12:22:27.492Z</time>
      </trkpt>
      <trkpt lat="46.08905" lon="6.7323">
        <ele>902</ele>
        <time>2024-05-14T12:23:18.826Z</time>
      </trkpt>
      <trkpt lat="46.08926" lon="6.73247">
        <ele>910</ele>
        <time>2024-05-14T12:24:06.114Z</time>
      </trkpt>
      <trkpt lat="46.08949" lon="6.73278">
        <ele>914</ele>
        <time>2024-05-14T12:24:33.447Z</time>
      </trkpt>
      <trkpt lat="46.08966" lon="6.73294">
        <ele>919</ele>
        <time>2024-05-14T12:25:01.356Z</time>
      </trkpt>
      <trkpt lat="46.08985" lon="6.733">
        <ele>927</ele>
        <time>2024-05-14T12:25:53.458Z</time>
      </trkpt>
      <trkpt lat="46.09005" lon="6.73314">
        <ele>930</ele>
        <time>2024-05-14T12:26:13.319Z</time>
      </trkpt>
      <trkpt lat="46.09022" lon="6.7333">
        <ele>936</ele>
        <time>2024-05-14T12:26:47.535Z</time>
      </trkpt>
      <trkpt lat="46.09053" lon="6.73353">
        <ele>940</ele>
        <time>2024-05-14T12:27:16.496Z</time>
      </trkpt>
      <trkpt lat="46.09068" lon="6.7337">
        <ele>945</ele>
        <time>2024-05-14T12:27:44.478Z</time>
      </trkpt>
      <trkpt lat="46.09084" lon="6.73379">
        <ele>956</ele>
        <time>2024-05-14T12:28:35.713Z</time>
      </trkpt>
      <trkpt lat="46.09084" lon="6.73349">
        <ele>960</ele>
        <time>2024-05-14T12:28:58.773Z</time>
      </trkpt>
      <trkpt lat="46.09084" lon="6.73318">
        <ele>962</ele>
        <time>2024-05-14T12:29:15.325Z</time>
      </trkpt>
      <trkpt lat="46.09086" lon="6.73286">
        <ele>963</ele>
        <time>2024-05-14T12:29:29.920Z</time>
      </trkpt>
      <trkpt lat="46.09104" lon="6.73275">
        <ele>970</ele>
        <time>2024-05-14T12:30:12.609Z</time>
      </trkpt>
      <trkpt lat="46.09121" lon="6.73295">
        <ele>978</ele>
        <time>2024-05-14T12:31:01.803Z</time>
      </trkpt>
      <trkpt lat="46.09144" lon="6.7329">
        <ele>986</ele>
        <time>2024-05-14T12:31:49.748Z</time>
      </trkpt>
      <trkpt lat="46.09164" lon="6.7328">
        <ele>993</ele>
        <time>2024-05-14T12:32:31.055Z</time>
      </trkpt>
      <trkpt lat="46.09192" lon="6.73259">
        <ele>1000</ele>
        <time>2024-05-14T12:33:10.356Z</time>
      </trkpt>
      <trkpt lat="46.09205" lon="6.73237">
        <ele>1002</ele>
        <time>2024-05-14T12:33:26.153Z</time>
      </trkpt>
      <trkpt lat="46.09214" lon="6.73206">
        <ele>1005</ele>
        <time>2024-05-14T12:33:46.509Z</time>
      </trkpt>
      <trkpt lat="46.09218" lon="6.73172">
        <ele>1005</ele>
        <time>2024-05-14T12:34:00.099Z</time>
      </trkpt>
      <trkpt lat="46.09223" lon="6.73124">
        <ele>1017</ele>
        <time>2024-05-14T12:35:13.136Z</time>
      </trkpt>
      <trkpt lat="46.09225" lon="6.73089">
        <ele>1019</ele>
        <time>2024-05-14T12:35:31.197Z</time>
      </trkpt>
      <trkpt lat="46.09227" lon="6.73053">
        <ele>1020</ele>
        <time>2024-05-14T12:35:47.340Z</time>
      </trkpt>
      <trkpt lat="46.09229" lon="6.73004">
        <ele>1021</ele>
        <time>2024-05-14T12:36:08.549Z</time>
      </trkpt>
      <trkpt lat="46.09232" lon="6.72975">
        <ele>1029</ele>
        <time>2024-05-14T12:36:59.565Z</time>
      </trkpt>
      <trkpt lat="46.09245" lon="6.72931">
        <ele>1036</ele>
        <time>2024-05-14T12:37:39.138Z</time>
      </trkpt>
      <trkpt lat="46.09254" lon="6.72904">
        <ele>1044</ele>
        <time>2024-05-14T12:38:29.627Z</time>
      </trkpt>
      <trkpt lat="46.09272" lon="6.7286">
        <ele>1047</ele>
        <time>2024-05-14T12:38:56.129Z</time>
      </trkpt>
      <trkpt lat="46.09294" lon="6.72833">
        <ele>1055</ele>
        <time>2024-05-14T12:39:41.184Z</time>
      </trkpt>
      <trkpt lat="46.09319" lon="6.728">
        <ele>1062</ele>
        <time>2024-05-14T12:40:20.908Z</time>
      </trkpt>
      <trkpt lat="46.09331" lon="6.72768">
        <ele>1065</ele>
        <time>2024-05-14T12:40:42.180Z</time>
      </trkpt>
      <trkpt lat="46.09339" lon="6.72733">
        <ele>1068</ele>
        <time>2024-05-14T12:41:03.611Z</time>
      </trkpt>
      <trkpt lat="46.0935" lon="6.72705">
        <ele>1072</ele>
        <time>2024-05-14T12:41:27.135Z</time>
      </trkpt>
      <trkpt lat="46.09369" lon="6.72682">
        <ele>1078</ele>
        <time>2024-05-14T12:42:00.630Z</time>
      </trkpt>
      <trkpt lat="46.09393" lon="6.72662">
        <ele>1090</ele>
        <time>2024-05-14T12:43:20.511Z</time>
      </trkpt>
      <trkpt lat="46.09411" lon="6.72648">
        <ele>1094</ele>
        <time>2024-05-14T12:43:43.474Z</time>
      </trkpt>
      <trkpt lat="46.09436" lon="6.72637">
        <ele>1101</ele>
        <time>2024-05-14T12:44:22.729Z</time>
      </trkpt>
      <trkpt lat="46.09468" lon="6.72621">
        <ele>1104</ele>
        <time>2024-05-14T12:44:48.406Z</time>
      </trkpt>
      <trkpt lat="46.09494" lon="6.72597">
        <ele>1103</ele>
        <time>2024-05-14T12:45:04.314Z</time>
      </trkpt>
      <trkpt lat="46.09509" lon="6.72579">
        <ele>1105</ele>
        <time>2024-05-14T12:45:19.840Z</time>
      </trkpt>
      <trkpt lat="46.09531" lon="6.72563">
        <ele>1103</ele>
        <time>2024-05-14T12:45:32.091Z</time>
      </trkpt>
      <trkpt lat="46.09569" lon="6.72528">
        <ele>1107</ele>
        <time>2024-05-14T12:46:06.291Z</time>
      </trkpt>
      <trkpt lat="46.0959" lon="6.72512">
        <ele>1107</ele>
        <time>2024-05-14T12:46:19.787Z</time>
      </trkpt>
      <trkpt lat="46.09615" lon="6.72493">
        <ele>1107</ele>
        <time>2024-05-14T12:46:35.845Z</time>
      </trkpt>
      <trkpt lat="46.09636" lon="6.72473">
        <ele>1107</ele>
        <time>2024-05-14T12:46:50.146Z</time>
      </trkpt>
      <trkpt lat="46.0968" lon="6.72452">
        <ele>1112</ele>
        <time>2024-05-14T12:47:27.725Z</time>
      </trkpt>
      <trkpt lat="46.09699" lon="6.72451">
        <ele>1115</ele>
        <time>2024-05-14T12:47:46.203Z</time>
      </trkpt>
      <trkpt lat="46.09685" lon="6.7247">
        <ele>1122</ele>
        <time>2024-05-14T12:48:29.220Z</time>
      </trkpt>
      <trkpt lat="46.09662" lon="6.72489">
        <ele>1123</ele>
        <time>2024-05-14T12:48:46.184Z</time>
      </trkpt>
      <trkpt lat="46.09645" lon="6.72508">
        <ele>1124</ele>
        <time>2024-05-14T12:49:00.346Z</time>
      </trkpt>
      <trkpt lat="46.09624" lon="6.7254">
        <ele>1129</ele>
        <time>2024-05-14T12:49:30.700Z</time>
      </trkpt>
      <trkpt lat="46.0961" lon="6.72563">
        <ele>1135</ele>
        <time>2024-05-14T12:50:04.606Z</time>
      </trkpt>
      <trkpt lat="46.09586" lon="6.72585">
        <ele>1137</ele>
        <time>2024-05-14T12:50:24.869Z</time>
      </trkpt>
      <trkpt lat="46.09564" lon="6.726">
        <ele>1140</ele>
        <time>2024-05-14T12:50:45.710Z</time>
      </trkpt>
      <trkpt lat="46.09553" lon="6.72623">
        <ele>1142</ele>
        <time>2024-05-14T12:51:01.165Z</time>
      </trkpt>
      <trkpt lat="46.09537" lon="6.72661">
        <ele>1152</ele>
        <time>2024-05-14T12:51:59.766Z</time>
      </trkpt>
      <trkpt lat="46.09518" lon="6.72693">
        <ele>1155</ele>
        <time>2024-05-14T12:52:23.026Z</time>
      </trkpt>
      <trkpt lat="46.09507" lon="6.72727">
        <ele>1162</ele>
        <time>2024-05-14T12:53:02.300Z</time>
      </trkpt>
      <trkpt lat="46.09502" lon="6.72757">
        <ele>1170</ele>
        <time>2024-05-14T12:53:52.078Z</time>
      </trkpt>
      <trkpt lat="46.09495" lon="6.72796">
        <ele>1174</ele>
        <time>2024-05-14T12:54:17.798Z</time>
      </trkpt>
      <trkpt lat="46.09496" lon="6.72835">
        <ele>1180</ele>
        <time>2024-05-14T12:54:51.486Z</time>
      </trkpt>
      <trkpt lat="46.09499" lon="6.72877">
        <ele>1186</ele>
        <time>2024-05-14T12:55:25.586Z</time>
      </trkpt>
      <trkpt lat="46.09504" lon="6.72915">
        <ele>1196</ele>
        <time>2024-05-14T12:56:27.724Z</time>
      </trkpt>
      <trkpt lat="46.09501" lon="6.72946">
        <ele>1200</ele>
        <time>2024-05-14T12:56:51.052Z</time>
      </trkpt>
      <trkpt lat="46.095" lon="6.72984">
        <ele>1205</ele>
        <time>2024-05-14T12:57:19.981Z</time>
      </trkpt>
      <trkpt lat="46.09499" lon="6.73034">
        <ele>1209</ele>
        <time>2024-05-14T12:57:48.856Z</time>
      </trkpt>
      <trkpt lat="46.0951" lon="6.73072">
        <ele>1210</ele>
        <time>2024-05-14T12:58:06.972Z</time>
      </trkpt>
      <trkpt lat="46.09524" lon="6.73113">
        <ele>1206</ele>
        <time>2024-05-14T12:58:22.730Z</time>
      </trkpt>
      <trkpt lat="46.09539" lon="6.73183">
        <ele>1202</ele>
        <time>2024-05-14T12:58:47.991Z</time>
      </trkpt>
      <trkpt lat="46.09547" lon="6.73216">
        <ele>1202</ele>
        <time>2024-05-14T12:59:01.767Z</time>
      </trkpt>
      <trkpt lat="46.09555" lon="6.7325">
        <ele>1202</ele>
        <time>2024-05-14T12:59:15.914Z</time>
      </trkpt>
      <trkpt lat="46.09566" lon="6.73283">
        <ele>1207</ele>
        <time>2024-05-14T12:59:44.573Z</time>
      </trkpt>
      <trkpt lat="46.09599" lon="6.73266">
        <ele>1215</ele>
        <time>2024-05-14T13:00:29.361Z</time>
      </trkpt>
      <trkpt lat="46.09638" lon="6.73244">
        <ele>1222</ele>
        <time>2024-05-14T13:01:11.520Z</time>
      </trkpt>
      <trkpt lat="46.09657" lon="6.73236">
        <ele>1224</ele>
        <time>2024-05-14T13:01:27.189Z</time>
      </trkpt>
      <trkpt lat="46.0968" lon="6.73234">
        <ele>1229</ele>
        <time>2024-05-14T13:01:55.338Z</time>
      </trkpt>
      <trkpt lat="46.09699" lon="6.7325">
        <ele>1231</ele>
        <time>2024-05-14T13:02:12.152Z</time>
      </trkpt>
      <trkpt lat="46.09716" lon="6.73263">
        <ele>1236</ele>
        <time>2024-05-14T13:02:40.117Z</time>
      </trkpt>
      <trkpt lat="46.09734" lon="6.73272">
        <ele>1237</ele>
        <time>2024-05-14T13:02:52.910Z</time>
      </trkpt>
      <trkpt lat="46.09758" lon="6.73243">
        <ele>1239</ele>
        <time>2024-05-14T13:03:14.743Z</time>
      </trkpt>
      <trkpt lat="46.09783" lon="6.73235">
        <ele>1240</ele>
        <time>2024-05-14T13:03:31.202Z</time>
      </trkpt>
      <trkpt lat="46.09814" lon="6.73235">
        <ele>1239</ele>
        <time>2024-05-14T13:03:47.183Z</time>
      </trkpt>
      <trkpt lat="46.09837" lon="6.73216">
        <ele>1238</ele>
        <time>2024-05-14T13:04:00.630Z</time>
      </trkpt>
      <trkpt lat="46.09856" lon="6.73208">
        <ele>1236</ele>
        <time>2024-05-14T13:04:10.471Z</time>
      </trkpt>
      <trkpt lat="46.09874" lon="6.732">
        <ele>1233</ele>
        <time>2024-05-14T13:04:19.836Z</time>
      </trkpt>
      <trkpt lat="46.09907" lon="6.73194">
        <ele>1231</ele>
        <time>2024-05-14T13:04:36.374Z</time>
      </trkpt>
      <trkpt lat="46.09937" lon="6.73196">
        <ele>1228</ele>
        <time>2024-05-14T13:04:51.306Z</time>
      </trkpt>
      <trkpt lat="46.09988" lon="6.73216">
        <ele>1226</ele>
        <time>2024-05-14T13:05:18.107Z</time>
      </trkpt>
      <trkpt lat="46.10009" lon="6.73249">
        <ele>1224</ele>
        <time>2024-05-14T13:05:33.550Z</time>
      </trkpt>
      <trkpt lat="46.10023" lon="6.73272">
        <ele>1224</ele>
        <time>2024-05-14T13:05:45.608Z</time>
      </trkpt>
      <trkpt lat="46.10045" lon="6.73304">
        <ele>1224</ele>
        <time>2024-05-14T13:06:03.364Z</time>
      </trkpt>
      <trkpt lat="46.1006" lon="6.73323">
        <ele>1224</ele>
        <time>2024-05-14T13:06:14.708Z</time>
      </trkpt>
      <trkpt lat="46.10082" lon="6.73365">
        <ele>1222</ele>
        <time>2024-05-14T13:06:32.855Z</time>
      </trkpt>
      <trkpt lat="46.101" lon="6.73394">
        <ele>1220</ele>
        <time>2024-05-14T13:06:46.274Z</time>
      </trkpt>
      <trkpt lat="46.10113" lon="6.73436">
        <ele>1221</ele>
        <time>2024-05-14T13:07:06.270Z</time>
      </trkpt>
      <trkpt lat="46.10119" lon="6.73465">
        <ele>1221</ele>
        <time>2024-05-14T13:07:18.194Z</time>
      </trkpt>
      <trkpt lat="46.10123" lon="6.73492">
        <ele>1221</ele>
        <time>2024-05-14T13:07:29.073Z</time>
      </trkpt>
      <trkpt lat="46.10128" lon="6.73524">
        <ele>1219</ele>
        <time>2024-05-14T13:07:40.382Z</time>
      </trkpt>
      <trkpt lat="46.10139" lon="6.73547">
        <ele>1218</ele>
        <time>2024-05-14T13:07:50.014Z</time>
      </trkpt>
      <trkpt lat="46.10165" lon="6.73541">
        <ele>1208</ele>
        <time>2024-05-14T13:08:03.106Z</time>
      </trkpt>
      <trkpt lat="46.10178" lon="6.73515">
        <ele>1203</ele>
        <time>2024-05-14T13:08:14.157Z</time>
      </trkpt>
      <trkpt lat="46.10188" lon="6.73477">
        <ele>1195</ele>
        <time>2024-05-14T13:08:28.169Z</time>
      </trkpt>
      <trkpt lat="46.10199" lon="6.7344">
        <ele>1187</ele>
        <time>2024-05-14T13:08:42.048Z</time>
      </trkpt>
      <trkpt lat="46.10208" lon="6.73413">
        <ele>1181</ele>
        <time>2024-05-14T13:08:52.376Z</time>
      </trkpt>
      <trkpt lat="46.1022" lon="6.73377">
        <ele>1172</ele>
        <time>2024-05-14T13:09:06.147Z</time>
      </trkpt>
      <trkpt lat="46.10223" lon="6.73349">
        <ele>1169</ele>
        <time>2024-05-14T13:09:15.915Z</time>
      </trkpt>
      <trkpt lat="46.10218" lon="6.73301">
        <ele>1162</ele>
        <time>2024-05-14T13:09:32.648Z</time>
      </trkpt>
      <trkpt lat="46.10211" lon="6.7326">
        <ele>1155</ele>
        <time>2024-05-14T13:09:47.205Z</time>
      </trkpt>
      <trkpt lat="46.10208" lon="6.73222">
        <ele>1153</ele>
        <time>2024-05-14T13:10:00.390Z</time>
      </trkpt>
      <trkpt lat="46.10203" lon="6.73192">
        <ele>1150</ele>
        <time>2024-05-14T13:10:11.027Z</time>
      </trkpt>
      <trkpt lat="46.1019" lon="6.73152">
        <ele>1147</ele>
        <time>2024-05-14T13:10:26.257Z</time>
      </trkpt>
      <trkpt lat="46.10182" lon="6.73127">
        <ele>1144</ele>
        <time>2024-05-14T13:10:35.750Z</time>
      </trkpt>
      <trkpt lat="46.10171" lon="6.73096">
        <ele>1143</ele>
        <time>2024-05-14T13:10:47.867Z</time>
      </trkpt>
      <trkpt lat="46.10157" lon="6.73053">
        <ele>1143</ele>
        <time>2024-05-14T13:11:06.584Z</time>
      </trkpt>
      <trkpt lat="46.10142" lon="6.73028">
        <ele>1143</ele>
        <time>2024-05-14T13:11:19.609Z</time>
      </trkpt>
      <trkpt lat="46.1014" lon="6.73005">
        <ele>1144</ele>
        <time>2024-05-14T13:11:30.755Z</time>
      </trkpt>
      <trkpt lat="46.10162" lon="6.72991">
        <ele>1149</ele>
        <time>2024-05-14T13:11:59.095Z</time>
      </trkpt>
      <trkpt lat="46.10184" lon="6.72996">
        <ele>1151</ele>
        <time>2024-05-14T13:12:16.051Z</time>
      </trkpt>
      <trkpt lat="46.10199" lon="6.73028">
        <ele>1152</ele>
        <time>2024-05-14T13:12:33.170Z</time>
      </trkpt>
      <trkpt lat="46.10212" lon="6.73053">
        <ele>1153</ele>
        <time>2024-05-14T13:12:47.421Z</time>
      </trkpt>
      <trkpt lat="46.10231" lon="6.73066">
        <ele>1156</ele>
        <time>2024-05-14T13:13:06.744Z</time>
      </trkpt>
      <trkpt lat="46.10251" lon="6.7307">
        <ele>1160</ele>
        <time>2024-05-14T13:13:29.640Z</time>
      </trkpt>
      <trkpt lat="46.10269" lon="6.73061">
        <ele>1162</ele>
        <time>2024-05-14T13:13:44.930Z</time>
      </trkpt>
      <trkpt lat="46.10276" lon="6.73036">
        <ele>1163</ele>
        <time>2024-05-14T13:13:57.525Z</time>
      </trkpt>
      <trkpt lat="46.10265" lon="6.72989">
        <ele>1163</ele>
        <time>2024-05-14T13:14:17.069Z</time>
      </trkpt>
      <trkpt lat="46.10251" lon="6.72953">
        <ele>1163</ele>
        <time>2024-05-14T13:14:33.332Z</time>
      </trkpt>
      <trkpt lat="46.10236" lon="6.72912">
        <ele>1162</ele>
        <time>2024-05-14T13:14:49.958Z</time>
      </trkpt>
      <trkpt lat="46.1023" lon="6.72883">
        <ele>1162</ele>
        <time>2024-05-14T13:15:01.882Z</time>
      </trkpt>
      <trkpt lat="46.10217" lon="6.72837">
        <ele>1164</ele>
        <time>2024-05-14T13:15:25.440Z</time>
      </trkpt>
      <trkpt lat="46.1021" lon="6.72803">
        <ele>1167</ele>
        <time>2024-05-14T13:15:46.405Z</time>
      </trkpt>
      <trkpt lat="46.10203" lon="6.72768">
        <ele>1169</ele>
        <time>2024-05-14T13:16:04.948Z</time>
      </trkpt>
      <trkpt lat="46.10199" lon="6.72737">
        <ele>1169</ele>
        <time>2024-05-14T13:16:17.372Z</time>
      </trkpt>
      <trkpt lat="46.10187" lon="6.72712">
        <ele>1169</ele>
        <time>2024-05-14T13:16:29.352Z</time>
      </trkpt>
      <trkpt lat="46.10172" lon="6.72689">
        <ele>1166</ele>
        <time>2024-05-14T13:16:40.238Z</time>
      </trkpt>
      <trkpt lat="46.10157" lon="6.7267">
        <ele>1166</ele>
        <time>2024-05-14T13:16:51.582Z</time>
      </trkpt>
      <trkpt lat="46.10148" lon="6.72646">
        <ele>1166</ele>
        <time>2024-05-14T13:17:02.332Z</time>
      </trkpt>
      <trkpt lat="46.10138" lon="6.72612">
        <ele>1167</ele>
        <time>2024-05-14T13:17:18.791Z</time>
      </trkpt>
      <trkpt lat="46.10126" lon="6.72566">
        <ele>1169</ele>
        <time>2024-05-14T13:17:42.148Z</time>
      </trkpt>
      <trkpt lat="46.10119" lon="6.7254">
        <ele>1169</ele>
        <time>2024-05-14T13:17:53.137Z</time>
      </trkpt>
      <trkpt lat="46.10112" lon="6.72505">
        <ele>1170</ele>
        <time>2024-05-14T13:18:09.400Z</time>
      </trkpt>
      <trkpt lat="46.10108" lon="6.72474">
        <ele>1171</ele>
        <time>2024-05-14T13:18:23.761Z</time>
      </trkpt>
      <trkpt lat="46.10118" lon="6.72453">
        <ele>1173</ele>
        <time>2024-05-14T13:18:38.356Z</time>
      </trkpt>
      <trkpt lat="46.10128" lon="6.7245">
        <ele>1175</ele>
        <time>2024-05-14T13:18:49.835Z</time>
      </trkpt>
      <trkpt lat="46.10142" lon="6.7248">
        <ele>1179</ele>
        <time>2024-05-14T13:19:14.363Z</time>
      </trkpt>
      <trkpt lat="46.10153" lon="6.72505">
        <ele>1181</ele>
        <time>2024-05-14T13:19:30.411Z</time>
      </trkpt>
      <trkpt lat="46.10169" lon="6.72506">
        <ele>1184</ele>
        <time>2024-05-14T13:19:47.825Z</time>
      </trkpt>
      <trkpt lat="46.1017" lon="6.72476">
        <ele>1184</ele>
        <time>2024-05-14T13:19:59.659Z</time>
      </trkpt>
      <trkpt lat="46.10182" lon="6.72444">
        <ele>1188</ele>
        <time>2024-05-14T13:20:24.247Z</time>
      </trkpt>
      <trkpt lat="46.10197" lon="6.72417">
        <ele>1190</ele>
        <time>2024-05-14T13:20:42.113Z</time>
      </trkpt>
      <trkpt lat="46.10222" lon="6.72404">
        <ele>1195</ele>
        <time>2024-05-14T13:21:11.102Z</time>
      </trkpt>
      <trkpt lat="46.10243" lon="6.72363">
        <ele>1200</ele>
        <time>2024-05-14T13:21:43.438Z</time>
      </trkpt>
      <trkpt lat="46.10254" lon="6.72336">
        <ele>1200</ele>
        <time>2024-05-14T13:21:55.776Z</time>
      </trkpt>
      <trkpt lat="46.10268" lon="6.72299">
        <ele>1200</ele>
        <time>2024-05-14T13:22:12.383Z</time>
      </trkpt>
      <trkpt lat="46.10283" lon="6.7227">
        <ele>1205</ele>
        <time>2024-05-14T13:22:40.964Z</time>
      </trkpt>
      <trkpt lat="46.10299" lon="6.72275">
        <ele>1207</ele>
        <time>2024-05-14T13:22:54.929Z</time>
      </trkpt>
      <trkpt lat="46.10289" lon="6.72307">
        <ele>1208</ele>
        <time>2024-05-14T13:23:10.674Z</time>
      </trkpt>
      <trkpt lat="46.10285" lon="6.72334">
        <ele>1211</ele>
        <time>2024-05-14T13:23:29.205Z</time>
      </trkpt>
      <trkpt lat="46.10284" lon="6.72364">
        <ele>1214</ele>
        <time>2024-05-14T13:23:48.440Z</time>
      </trkpt>
      <trkpt lat="46.10286" lon="6.72393">
        <ele>1217</ele>
        <time>2024-05-14T13:24:07.409Z</time>
      </trkpt>
      <trkpt lat="46.10289" lon="6.72421">
        <ele>1218</ele>
        <time>2024-05-14T13:24:20.532Z</time>
      </trkpt>
      <trkpt lat="46.10298" lon="6.72461">
        <ele>1222</ele>
        <time>2024-05-14T13:24:46.794Z</time>
      </trkpt>
      <trkpt lat="46.10306" lon="6.72491">
        <ele>1226</ele>
        <time>2024-05-14T13:25:10.307Z</time>
      </trkpt>
      <trkpt lat="46.10314" lon="6.72519">
        <ele>1231</ele>
        <time>2024-05-14T13:25:38.231Z</time>
      </trkpt>
      <trkpt lat="46.10324" lon="6.72538">
        <ele>1234</ele>
        <time>2024-05-14T13:25:55.809Z</time>
      </trkpt>
      <trkpt lat="46.10326" lon="6.72513">
        <ele>1236</ele>
        <time>2024-05-14T13:26:10.298Z</time>
      </trkpt>
      <trkpt lat="46.10324" lon="6.72485">
        <ele>1237</ele>
        <time>2024-05-14T13:26:23.350Z</time>
      </trkpt>
      <trkpt lat="46.10334" lon="6.72462">
        <ele>1239</ele>
        <time>2024-05-14T13:26:38.525Z</time>
      </trkpt>
      <trkpt lat="46.1035" lon="6.72443">
        <ele>1241</ele>
        <time>2024-05-14T13:26:54.674Z</time>
      </trkpt>
      <trkpt lat="46.10368" lon="6.72419">
        <ele>1242</ele>
        <time>2024-05-14T13:27:10.519Z</time>
      </trkpt>
      <trkpt lat="46.10381" lon="6.72391">
        <ele>1244</ele>
        <time>2024-05-14T13:27:28.052Z</time>
      </trkpt>
      <trkpt lat="46.10392" lon="6.72358">
        <ele>1246</ele>
        <time>2024-05-14T13:27:46.665Z</time>
      </trkpt>
      <trkpt lat="46.10408" lon="6.72362">
        <ele>1252</ele>
        <time>2024-05-14T13:28:23.790Z</time>
      </trkpt>
      <trkpt lat="46.10402" lon="6.72404">
        <ele>1256</ele>
        <time>2024-05-14T13:28:50.311Z</time>
      </trkpt>
      <trkpt lat="46.10398" lon="6.72454">
        <ele>1257</ele>
        <time>2024-05-14T13:29:12.004Z</time>
      </trkpt>
      <trkpt lat="46.10401" lon="6.72481">
        <ele>1263</ele>
        <time>2024-05-14T13:29:46.875Z</time>
      </trkpt>
      <trkpt lat="46.10417" lon="6.72494">
        <ele>1264</ele>
        <time>2024-05-14T13:29:59.287Z</time>
      </trkpt>
      <trkpt lat="46.10439" lon="6.72489">
        <ele>1268</ele>
        <time>2024-05-14T13:30:22.796Z</time>
      </trkpt>
      <trkpt lat="46.1046" lon="6.72496">
        <ele>1270</ele>
        <time>2024-05-14T13:30:39.375Z</time>
      </trkpt>
      <trkpt lat="46.10485" lon="6.72521">
        <ele>1273</ele>
        <time>2024-05-14T13:31:03.254Z</time>
      </trkpt>
      <trkpt lat="46.10506" lon="6.7254">
        <ele>1276</ele>
        <time>2024-05-14T13:31:24.314Z</time>
      </trkpt>
      <trkpt lat="46.10522" lon="6.72556">
        <ele>1279</ele>
        <time>2024-05-14T13:31:42.977Z</time>
      </trkpt>
      <trkpt lat="46.10561" lon="6.72594">
        <ele>1284</ele>
        <time>2024-05-14T13:32:20.918Z</time>
      </trkpt>
      <trkpt lat="46.10578" lon="6.72616">
        <ele>1285</ele>
        <time>2024-05-14T13:32:35.824Z</time>
      </trkpt>
      <trkpt lat="46.10596" lon="6.72625">
        <ele>1291</ele>
        <time>2024-05-14T13:33:10.642Z</time>
      </trkpt>
      <trkpt lat="46.106" lon="6.72586">
        <ele>1294</ele>
        <time>2024-05-14T13:33:32.952Z</time>
      </trkpt>
      <trkpt lat="46.10599" lon="6.72533">
        <ele>1297</ele>
        <time>2024-05-14T13:34:00.164Z</time>
      </trkpt>
      <trkpt lat="46.10601" lon="6.72505">
        <ele>1300</ele>
        <time>2024-05-14T13:34:18.845Z</time>
      </trkpt>
      <trkpt lat="46.10606" lon="6.72472">
        <ele>1301</ele>
        <time>2024-05-14T13:34:34.077Z</time>
      </trkpt>
      <trkpt lat="46.10609" lon="6.72443">
        <ele>1301</ele>
        <time>2024-05-14T13:34:45.629Z</time>
      </trkpt>
      <trkpt lat="46.10618" lon="6.7242">
        <ele>1302</ele>
        <time>2024-05-14T13:34:58.011Z</time>
      </trkpt>
      <trkpt lat="46.10637" lon="6.72426">
        <ele>1307</ele>
        <time>2024-05-14T13:35:25.956Z</time>
      </trkpt>
      <trkpt lat="46.10646" lon="6.72451">
        <ele>1309</ele>
        <time>2024-05-14T13:35:41.490Z</time>
      </trkpt>
      <trkpt lat="46.10657" lon="6.72484">
        <ele>1313</ele>
        <time>2024-05-14T13:36:06.142Z</time>
      </trkpt>
      <trkpt lat="46.10669" lon="6.72504">
        <ele>1315</ele>
        <time>2024-05-14T13:36:21.073Z</time>
      </trkpt>
      <trkpt lat="46.10687" lon="6.72504">
        <ele>1320</ele>
        <time>2024-05-14T13:36:49.246Z</time>
      </trkpt>
      <trkpt lat="46.10701" lon="6.72481">
        <ele>1324</ele>
        <time>2024-05-14T13:37:12.426Z</time>
      </trkpt>
      <trkpt lat="46.10706" lon="6.72448">
        <ele>1324</ele>
        <time>2024-05-14T13:37:25.733Z</time>
      </trkpt>
      <trkpt lat="46.1072" lon="6.72433">
        <ele>1328</ele>
        <time>2024-05-14T13:37:48.120Z</time>
      </trkpt>
      <trkpt lat="46.10726" lon="6.72463">
        <ele>1330</ele>
        <time>2024-05-14T13:38:04.748Z</time>
      </trkpt>
      <trkpt lat="46.10742" lon="6.72495">
        <ele>1335</ele>
        <time>2024-05-14T13:38:33.977Z</time>
      </trkpt>
      <trkpt lat="46.10763" lon="6.72522">
        <ele>1338</ele>
        <time>2024-05-14T13:38:56.688Z</time>
      </trkpt>
      <trkpt lat="46.10787" lon="6.7257">
        <ele>1341</ele>
        <time>2024-05-14T13:39:26.199Z</time>
      </trkpt>
      <trkpt lat="46.10816" lon="6.72623">
        <ele>1346</ele>
        <time>2024-05-14T13:40:04.011Z</time>
      </trkpt>
      <trkpt lat="46.10842" lon="6.72672">
        <ele>1352</ele>
        <time>2024-05-14T13:40:42.976Z</time>
      </trkpt>
      <trkpt lat="46.10866" lon="6.7271">
        <ele>1357</ele>
        <time>2024-05-14T13:41:15.441Z</time>
      </trkpt>
      <trkpt lat="46.10883" lon="6.72735">
        <ele>1360</ele>
        <time>2024-05-14T13:41:36.255Z</time>
      </trkpt>
      <trkpt lat="46.1091" lon="6.7277">
        <ele>1365</ele>
        <time>2024-05-14T13:42:09.016Z</time>
      </trkpt>
      <trkpt lat="46.10925" lon="6.72788">
        <ele>1367</ele>
        <time>2024-05-14T13:42:24.541Z</time>
      </trkpt>
      <trkpt lat="46.10944" lon="6.72823">
        <ele>1367</ele>
        <time>2024-05-14T13:42:42.053Z</time>
      </trkpt>
      <trkpt lat="46.10965" lon="6.72877">
        <ele>1367</ele>
        <time>2024-05-14T13:43:06.445Z</time>
      </trkpt>
      <trkpt lat="46.10979" lon="6.7293">
        <ele>1362</ele>
        <time>2024-05-14T13:43:25.995Z</time>
      </trkpt>
      <trkpt lat="46.11" lon="6.72982">
        <ele>1360</ele>
        <time>2024-05-14T13:43:46.739Z</time>
      </trkpt>
      <trkpt lat="46.11023" lon="6.73015">
        <ele>1359</ele>
        <time>2024-05-14T13:44:03.534Z</time>
      </trkpt>
      <trkpt lat="46.11034" lon="6.7304">
        <ele>1356</ele>
        <time>2024-05-14T13:44:13.741Z</time>
      </trkpt>
      <trkpt lat="46.11037" lon="6.73067">
        <ele>1351</ele>
        <time>2024-05-14T13:44:23.166Z</time>
      </trkpt>
      <trkpt lat="46.11021" lon="6.73101">
        <ele>1339</ele>
        <time>2024-05-14T13:44:37.331Z</time>
      </trkpt>
      <trkpt lat="46.10999" lon="6.73111">
        <ele>1329</ele>
        <time>2024-05-14T13:44:48.800Z</time>
      </trkpt>
      <trkpt lat="46.10979" lon="6.73127">
        <ele>1320</ele>
        <time>2024-05-14T13:45:00.171Z</time>
      </trkpt>
      <trkpt lat="46.10992" lon="6.73155">
        <ele>1318</ele>
        <time>2024-05-14T13:45:11.787Z</time>
      </trkpt>
      <trkpt lat="46.11012" lon="6.73184">
        <ele>1314</ele>
        <time>2024-05-14T13:45:25.887Z</time>
      </trkpt>
      <trkpt lat="46.11027" lon="6.73201">
        <ele>1310</ele>
        <time>2024-05-14T13:45:35.372Z</time>
      </trkpt>
      <trkpt lat="46.11051" lon="6.73216">
        <ele>1307</ele>
        <time>2024-05-14T13:45:48.377Z</time>
      </trkpt>
      <trkpt lat="46.11071" lon="6.73217">
        <ele>1304</ele>
        <time>2024-05-14T13:45:58.327Z</time>
      </trkpt>
      <trkpt lat="46.11092" lon="6.73218">
        <ele>1300</ele>
        <time>2024-05-14T13:46:08.774Z</time>
      </trkpt>
      <trkpt lat="46.1111" lon="6.73224">
        <ele>1294</ele>
        <time>2024-05-14T13:46:17.960Z</time>
      </trkpt>
      <trkpt lat="46.11132" lon="6.73251">
        <ele>1284</ele>
        <time>2024-05-14T13:46:32.322Z</time>
      </trkpt>
      <trkpt lat="46.11135" lon="6.73279">
        <ele>1281</ele>
        <time>2024-05-14T13:46:42.088Z</time>
      </trkpt>
      <trkpt lat="46.11134" lon="6.733">
        <ele>1278</ele>
        <time>2024-05-14T13:46:49.343Z</time>
      </trkpt>
      <trkpt lat="46.11149" lon="6.7334">
        <ele>1264</ele>
        <time>2024-05-14T13:47:05.019Z</time>
      </trkpt>
      <trkpt lat="46.11155" lon="6.73372">
        <ele>1257</ele>
        <time>2024-05-14T13:47:16.445Z</time>
      </trkpt>
      <trkpt lat="46.11153" lon="6.73408">
        <ele>1252</ele>
        <time>2024-05-14T13:47:28.894Z</time>
      </trkpt>
      <trkpt lat="46.11139" lon="6.7344">
        <ele>1247</ele>
        <time>2024-05-14T13:47:41.937Z</time>
      </trkpt>
      <trkpt lat="46.11125" lon="6.73471">
        <ele>1240</ele>
        <time>2024-05-14T13:47:54.690Z</time>
      </trkpt>
      <trkpt lat="46.11108" lon="6.73488">
        <ele>1237</ele>
        <time>2024-05-14T13:48:04.975Z</time>
      </trkpt>
      <trkpt lat="46.11114" lon="6.73515">
        <ele>1229</ele>
        <time>2024-05-14T13:48:14.748Z</time>
      </trkpt>
      <trkpt lat="46.11131" lon="6.73531">
        <ele>1225</ele>
        <time>2024-05-14T13:48:24.840Z</time>
      </trkpt>
      <trkpt lat="46.11147" lon="6.73553">
        <ele>1221</ele>
        <time>2024-05-14T13:48:35.831Z</time>
      </trkpt>
      <trkpt lat="46.11163" lon="6.73574">
        <ele>1222</ele>
        <time>2024-05-14T13:48:50.062Z</time>
      </trkpt>
      <trkpt lat="46.11193" lon="6.73583">
        <ele>1223</ele>
        <time>2024-05-14T13:49:09.354Z</time>
      </trkpt>
      <trkpt lat="46.11227" lon="6.73586">
        <ele>1227</ele>
        <time>2024-05-14T13:49:37.923Z</time>
      </trkpt>
      <trkpt lat="46.11254" lon="6.73588">
        <ele>1229</ele>
        <time>2024-05-14T13:49:57.425Z</time>
      </trkpt>
      <trkpt lat="46.1128" lon="6.73589">
        <ele>1228</ele>
        <time>2024-05-14T13:50:10.591Z</time>
      </trkpt>
      <trkpt lat="46.11299" lon="6.73596">
        <ele>1228</ele>
        <time>2024-05-14T13:50:21.734Z</time>
      </trkpt>
      <trkpt lat="46.11317" lon="6.7359">
        <ele>1230</ele>
        <time>2024-05-14T13:50:36.734Z</time>
      </trkpt>
      <trkpt lat="46.11332" lon="6.73568">
        <ele>1231</ele>
        <time>2024-05-14T13:50:50.831Z</time>
      </trkpt>
      <trkpt lat="46.11347" lon="6.73578">
        <ele>1227</ele>
        <time>2024-05-14T13:50:59.047Z</time>
      </trkpt>
      <trkpt lat="46.11365" lon="6.73602">
        <ele>1226</ele>
        <time>2024-05-14T13:51:11.369Z</time>
      </trkpt>
      <trkpt lat="46.11387" lon="6.73605">
        <ele>1226</ele>
        <time>2024-05-14T13:51:23.926Z</time>
      </trkpt>
      <trkpt lat="46.11407" lon="6.73614">
        <ele>1225</ele>
        <time>2024-05-14T13:51:34.343Z</time>
      </trkpt>
      <trkpt lat="46.11421" lon="6.73626">
        <ele>1224</ele>
        <time>2024-05-14T13:51:42.440Z</time>
      </trkpt>
      <trkpt lat="46.11427" lon="6.7359">
        <ele>1224</ele>
        <time>2024-05-14T13:51:57.025Z</time>
      </trkpt>
      <trkpt lat="46.11436" lon="6.73566">
        <ele>1224</ele>
        <time>2024-05-14T13:52:07.773Z</time>
      </trkpt>
      <trkpt lat="46.11455" lon="6.73562">
        <ele>1214</ele>
        <time>2024-05-14T13:52:17.320Z</time>
      </trkpt>
      <trkpt lat="46.11485" lon="6.73589">
        <ele>1205</ele>
        <time>2024-05-14T13:52:34.902Z</time>
      </trkpt>
      <trkpt lat="46.11504" lon="6.73612">
        <ele>1199</ele>
        <time>2024-05-14T13:52:47.234Z</time>
      </trkpt>
      <trkpt lat="46.11521" lon="6.73626">
        <ele>1199</ele>
        <time>2024-05-14T13:52:58.357Z</time>
      </trkpt>
      <trkpt lat="46.11548" lon="6.73626">
        <ele>1201</ele>
        <time>2024-05-14T13:53:17.840Z</time>
      </trkpt>
      <trkpt lat="46.11571" lon="6.73622">
        <ele>1203</ele>
        <time>2024-05-14T13:53:35.268Z</time>
      </trkpt>
      <trkpt lat="46.11595" lon="6.73614">
        <ele>1206</ele>
        <time>2024-05-14T13:53:56.252Z</time>
      </trkpt>
      <trkpt lat="46.11614" lon="6.73605">
        <ele>1206</ele>
        <time>2024-05-14T13:54:07.616Z</time>
      </trkpt>
      <trkpt lat="46.11633" lon="6.73612">
        <ele>1205</ele>
        <time>2024-05-14T13:54:17.366Z</time>
      </trkpt>
      <trkpt lat="46.11649" lon="6.7363">
        <ele>1204</ele>
        <time>2024-05-14T13:54:27.454Z</time>
      </trkpt>
      <trkpt lat="46.11654" lon="6.73662">
        <ele>1202</ele>
        <time>2024-05-14T13:54:38.760Z</time>
      </trkpt>
      <trkpt lat="46.1167" lon="6.73678">
        <ele>1200</ele>
        <time>2024-05-14T13:54:48.440Z</time>
      </trkpt>
      <trkpt lat="46.11692" lon="6.73684">
        <ele>1196</ele>
        <time>2024-05-14T13:54:59.572Z</time>
      </trkpt>
      <trkpt lat="46.11718" lon="6.73693">
        <ele>1195</ele>
        <time>2024-05-14T13:55:13.149Z</time>
      </trkpt>
      <trkpt lat="46.11742" lon="6.73686">
        <ele>1195</ele>
        <time>2024-05-14T13:55:27.063Z</time>
      </trkpt>
      <trkpt lat="46.11758" lon="6.7367">
        <ele>1194</ele>
        <time>2024-05-14T13:55:36.742Z</time>
      </trkpt>
      <trkpt lat="46.11772" lon="6.73646">
        <ele>1194</ele>
        <time>2024-05-14T13:55:49.097Z</time>
      </trkpt>
      <trkpt lat="46.11791" lon="6.7363">
        <ele>1190</ele>
        <time>2024-05-14T13:56:00.036Z</time>
      </trkpt>
      <trkpt lat="46.11808" lon="6.73635">
        <ele>1189</ele>
        <time>2024-05-14T13:56:08.662Z</time>
      </trkpt>
      <trkpt lat="46.11785" lon="6.73679">
        <ele>1186</ele>
        <time>2024-05-14T13:56:27.656Z</time>
      </trkpt>
      <trkpt lat="46.11784" lon="6.73706">
        <ele>1177</ele>
        <time>2024-05-14T13:56:36.975Z</time>
      </trkpt>
      <trkpt lat="46.11796" lon="6.73735">
        <ele>1176</ele>
        <time>2024-05-14T13:56:48.678Z</time>
      </trkpt>
      <trkpt lat="46.1181" lon="6.73755">
        <ele>1176</ele>
        <time>2024-05-14T13:56:59.874Z</time>
      </trkpt>
      <trkpt lat="46.11826" lon="6.73769">
        <ele>1176</ele>
        <time>2024-05-14T13:57:10.508Z</time>
      </trkpt>
      <trkpt lat="46.11835" lon="6.73792">
        <ele>1178</ele>
        <time>2024-05-14T13:57:25.423Z</time>
      </trkpt>
      <trkpt lat="46.11847" lon="6.73812">
        <ele>1182</ele>
        <time>2024-05-14T13:57:47.927Z</time>
      </trkpt>
      <trkpt lat="46.11827" lon="6.73827">
        <ele>1183</ele>
        <time>2024-05-14T13:58:02.666Z</time>
      </trkpt>
      <trkpt lat="46.11809" lon="6.7385">
        <ele>1187</ele>
        <time>2024-05-14T13:58:26.800Z</time>
      </trkpt>
      <trkpt lat="46.11793" lon="6.73869">
        <ele>1191</ele>
        <time>2024-05-14T13:58:49.837Z</time>
      </trkpt>
      <trkpt lat="46.1177" lon="6.73886">
        <ele>1200</ele>
        <time>2024-05-14T13:59:44.059Z</time>
      </trkpt>
      <trkpt lat="46.11755" lon="6.73915">
        <ele>1209</ele>
        <time>2024-05-14T14:00:38.998Z</time>
      </trkpt>
      <trkpt lat="46.11755" lon="6.73943">
        <ele>1214</ele>
        <time>2024-05-14T14:01:06.947Z</time>
      </trkpt>
      <trkpt lat="46.11742" lon="6.73966">
        <ele>1220</ele>
        <time>2024-05-14T14:01:41.061Z</time>
      </trkpt>
      <trkpt lat="46.11723" lon="6.73995">
        <ele>1222</ele>
        <time>2024-05-14T14:02:00.901Z</time>
      </trkpt>
      <trkpt lat="46.11727" lon="6.74025">
        <ele>1221</ele>
        <time>2024-05-14T14:02:11.430Z</time>
      </trkpt>
      <trkpt lat="46.11727" lon="6.74052">
        <ele>1221</ele>
        <time>2024-05-14T14:02:22.065Z</time>
      </trkpt>
      <trkpt lat="46.11748" lon="6.74066">
        <ele>1233</ele>
        <time>2024-05-14T14:03:31.079Z</time>
      </trkpt>
      <trkpt lat="46.11749" lon="6.74088">
        <ele>1237</ele>
        <time>2024-05-14T14:03:53.463Z</time>
      </trkpt>
      <trkpt lat="46.11761" lon="6.74102">
        <ele>1245</ele>
        <time>2024-05-14T14:04:39.503Z</time>
      </trkpt>
      <trkpt lat="46.11784" lon="6.74096">
        <ele>1246</ele>
        <time>2024-05-14T14:04:54.708Z</time>
      </trkpt>
      <trkpt lat="46.11796" lon="6.74072">
        <ele>1248</ele>
        <time>2024-05-14T14:05:10.747Z</time>
      </trkpt>
      <trkpt lat="46.1182" lon="6.74064">
        <ele>1253</ele>
        <time>2024-05-14T14:05:39.217Z</time>
      </trkpt>
      <trkpt lat="46.11838" lon="6.74052">
        <ele>1258</ele>
        <time>2024-05-14T14:06:07.139Z</time>
      </trkpt>
      <trkpt lat="46.1185" lon="6.74031">
        <ele>1258</ele>
        <time>2024-05-14T14:06:17.859Z</time>
      </trkpt>
      <trkpt lat="46.11873" lon="6.74009">
        <ele>1258</ele>
        <time>2024-05-14T14:06:33.540Z</time>
      </trkpt>
      <trkpt lat="46.1189" lon="6.74013">
        <ele>1262</ele>
        <time>2024-05-14T14:06:55.906Z</time>
      </trkpt>
      <trkpt lat="46.11883" lon="6.74039">
        <ele>1267</ele>
        <time>2024-05-14T14:07:23.862Z</time>
      </trkpt>
      <trkpt lat="46.11883" lon="6.74075">
        <ele>1274</ele>
        <time>2024-05-14T14:08:03.366Z</time>
      </trkpt>
      <trkpt lat="46.11886" lon="6.7411">
        <ele>1281</ele>
        <time>2024-05-14T14:08:43.016Z</time>
      </trkpt>
      <trkpt lat="46.11898" lon="6.74146">
        <ele>1288</ele>
        <time>2024-05-14T14:09:22.109Z</time>
      </trkpt>
      <trkpt lat="46.11905" lon="6.74175">
        <ele>1292</ele>
        <time>2024-05-14T14:09:45.309Z</time>
      </trkpt>
      <trkpt lat="46.11919" lon="6.74197">
        <ele>1296</ele>
        <time>2024-05-14T14:10:08.340Z</time>
      </trkpt>
      <trkpt lat="46.11919" lon="6.74226">
        <ele>1300</ele>
        <time>2024-05-14T14:10:31.213Z</time>
      </trkpt>
      <trkpt lat="46.11912" lon="6.74254">
        <ele>1304</ele>
        <time>2024-05-14T14:10:54.225Z</time>
      </trkpt>
      <trkpt lat="46.11911" lon="6.74284">
        <ele>1310</ele>
        <time>2024-05-14T14:11:28.254Z</time>
      </trkpt>
      <trkpt lat="46.11903" lon="6.7432">
        <ele>1315</ele>
        <time>2024-05-14T14:11:57.135Z</time>
      </trkpt>
      <trkpt lat="46.1189" lon="6.74354">
        <ele>1318</ele>
        <time>2024-05-14T14:12:19.236Z</time>
      </trkpt>
      <trkpt lat="46.11891" lon="6.7438">
        <ele>1325</ele>
        <time>2024-05-14T14:13:03.565Z</time>
      </trkpt>
      <trkpt lat="46.11908" lon="6.74398">
        <ele>1329</ele>
        <time>2024-05-14T14:13:26.706Z</time>
      </trkpt>
      <trkpt lat="46.11922" lon="6.74422">
        <ele>1336</ele>
        <time>2024-05-14T14:14:07.620Z</time>
      </trkpt>
      <trkpt lat="46.11936" lon="6.74444">
        <ele>1338</ele>
        <time>2024-05-14T14:14:23.756Z</time>
      </trkpt>
      <trkpt lat="46.11943" lon="6.74471">
        <ele>1342</ele>
        <time>2024-05-14T14:14:46.599Z</time>
      </trkpt>
      <trkpt lat="46.1195" lon="6.74497">
        <ele>1344</ele>
        <time>2024-05-14T14:15:02.033Z</time>
      </trkpt>
      <trkpt lat="46.11954" lon="6.74526">
        <ele>1350</ele>
        <time>2024-05-14T14:15:36.174Z</time>
      </trkpt>
      <trkpt lat="46.11948" lon="6.74557">
        <ele>1352</ele>
        <time>2024-05-14T14:15:53.151Z</time>
      </trkpt>
      <trkpt lat="46.11944" lon="6.74589">
        <ele>1358</ele>
        <time>2024-05-14T14:16:26.776Z</time>
      </trkpt>
      <trkpt lat="46.11948" lon="6.74616">
        <ele>1364</ele>
        <time>2024-05-14T14:17:01.545Z</time>
      </trkpt>
      <trkpt lat="46.11951" lon="6.74656">
        <ele>1372</ele>
        <time>2024-05-14T14:17:46.874Z</time>
      </trkpt>
      <trkpt lat="46.11947" lon="6.74688">
        <ele>1375</ele>
        <time>2024-05-14T14:18:06.875Z</time>
      </trkpt>
      <trkpt lat="46.11959" lon="6.7471">
        <ele>1380</ele>
        <time>2024-05-14T14:18:34.824Z</time>
      </trkpt>
      <trkpt lat="46.11972" lon="6.74735">
        <ele>1385</ele>
        <time>2024-05-14T14:19:02.794Z</time>
      </trkpt>
      <trkpt lat="46.11978" lon="6.74769">
        <ele>1388</ele>
        <time>2024-05-14T14:19:23.628Z</time>
      </trkpt>
      <trkpt lat="46.11982" lon="6.74797">
        <ele>1395</ele>
        <time>2024-05-14T14:20:06.061Z</time>
      </trkpt>
      <trkpt lat="46.11991" lon="6.7482">
        <ele>1400</ele>
        <time>2024-05-14T14:20:34.166Z</time>
      </trkpt>
      <trkpt lat="46.12008" lon="6.74836">
        <ele>1403</ele>
        <time>2024-05-14T14:20:53.174Z</time>
      </trkpt>
      <trkpt lat="46.12028" lon="6.74829">
        <ele>1408</ele>
        <time>2024-05-14T14:21:21.084Z</time>
      </trkpt>
      <trkpt lat="46.12047" lon="6.74826">
        <ele>1414</ele>
        <time>2024-05-14T14:21:55.866Z</time>
      </trkpt>
      <trkpt lat="46.12066" lon="6.74827">
        <ele>1418</ele>
        <time>2024-05-14T14:22:18.492Z</time>
      </trkpt>
      <trkpt lat="46.12067" lon="6.74864">
        <ele>1425</ele>
        <time>2024-05-14T14:22:57.831Z</time>
      </trkpt>
      <trkpt lat="46.12073" lon="6.74897">
        <ele>1431</ele>
        <time>2024-05-14T14:23:31.345Z</time>
      </trkpt>
      <trkpt lat="46.12085" lon="6.74926">
        <ele>1434</ele>
        <time>2024-05-14T14:23:51.749Z</time>
      </trkpt>
      <trkpt lat="46.12089" lon="6.74958">
        <ele>1435</ele>
        <time>2024-05-14T14:24:06.487Z</time>
      </trkpt>
      <trkpt lat="46.12088" lon="6.74986">
        <ele>1439</ele>
        <time>2024-05-14T14:24:29.201Z</time>
      </trkpt>
      <trkpt lat="46.12083" lon="6.75016">
        <ele>1445</ele>
        <time>2024-05-14T14:25:03.062Z</time>
      </trkpt>
      <trkpt lat="46.12081" lon="6.75054">
        <ele>1447</ele>
        <time>2024-05-14T14:25:22.228Z</time>
      </trkpt>
      <trkpt lat="46.12077" lon="6.75084">
        <ele>1450</ele>
        <time>2024-05-14T14:25:41.616Z</time>
      </trkpt>
      <trkpt lat="46.12087" lon="6.75107">
        <ele>1455</ele>
        <time>2024-05-14T14:26:09.632Z</time>
      </trkpt>
      <trkpt lat="46.12109" lon="6.7511">
        <ele>1463</ele>
        <time>2024-05-14T14:26:58.664Z</time>
      </trkpt>
      <trkpt lat="46.12125" lon="6.75129">
        <ele>1471</ele>
        <time>2024-05-14T14:27:49.214Z</time>
      </trkpt>
      <trkpt lat="46.12127" lon="6.75161">
        <ele>1476</ele>
        <time>2024-05-14T14:28:17.250Z</time>
      </trkpt>
      <trkpt lat="46.1214" lon="6.75192">
        <ele>1485</ele>
        <time>2024-05-14T14:29:12.157Z</time>
      </trkpt>
      <trkpt lat="46.12163" lon="6.75218">
        <ele>1492</ele>
        <time>2024-05-14T14:29:51.243Z</time>
      </trkpt>
      <trkpt lat="46.12183" lon="6.75239">
        <ele>1496</ele>
        <time>2024-05-14T14:30:15.640Z</time>
      </trkpt>
      <trkpt lat="46.122" lon="6.75255">
        <ele>1498</ele>
        <time>2024-05-14T14:30:31.567Z</time>
      </trkpt>
      <trkpt lat="46.12221" lon="6.75269">
        <ele>1505</ele>
        <time>2024-05-14T14:31:11.720Z</time>
      </trkpt>
      <trkpt lat="46.12243" lon="6.75276">
        <ele>1509</ele>
        <time>2024-05-14T14:31:35.315Z</time>
      </trkpt>
      <trkpt lat="46.12254" lon="6.75302">
        <ele>1511</ele>
        <time>2024-05-14T14:31:51.665Z</time>
      </trkpt>
      <trkpt lat="46.12268" lon="6.75322">
        <ele>1513</ele>
        <time>2024-05-14T14:32:07.286Z</time>
      </trkpt>
      <trkpt lat="46.12291" lon="6.75332">
        <ele>1518</ele>
        <time>2024-05-14T14:32:35.621Z</time>
      </trkpt>
      <trkpt lat="46.1231" lon="6.75352">
        <ele>1521</ele>
        <time>2024-05-14T14:32:56.076Z</time>
      </trkpt>
      <trkpt lat="46.12336" lon="6.75361">
        <ele>1524</ele>
        <time>2024-05-14T14:33:18.089Z</time>
      </trkpt>
      <trkpt lat="46.12351" lon="6.75382">
        <ele>1530</ele>
        <time>2024-05-14T14:33:52.091Z</time>
      </trkpt>
      <trkpt lat="46.12366" lon="6.754">
        <ele>1532</ele>
        <time>2024-05-14T14:34:07.615Z</time>
      </trkpt>
      <trkpt lat="46.12385" lon="6.7542">
        <ele>1536</ele>
        <time>2024-05-14T14:34:31.555Z</time>
      </trkpt>
      <trkpt lat="46.12408" lon="6.75435">
        <ele>1538</ele>
        <time>2024-05-14T14:34:50.090Z</time>
      </trkpt>
      <trkpt lat="46.12433" lon="6.75452">
        <ele>1542</ele>
        <time>2024-05-14T14:35:15.680Z</time>
      </trkpt>
      <trkpt lat="46.12456" lon="6.75469">
        <ele>1547</ele>
        <time>2024-05-14T14:35:44.459Z</time>
      </trkpt>
      <trkpt lat="46.12475" lon="6.75489">
        <ele>1551</ele>
        <time>2024-05-14T14:36:08.400Z</time>
      </trkpt>
      <trkpt lat="46.12494" lon="6.7551">
        <ele>1557</ele>
        <time>2024-05-14T14:36:41.900Z</time>
      </trkpt>
      <trkpt lat="46.12511" lon="6.75524">
        <ele>1560</ele>
        <time>2024-05-14T14:37:00.606Z</time>
      </trkpt>
      <trkpt lat="46.1253" lon="6.75543">
        <ele>1561</ele>
        <time>2024-05-14T14:37:15.668Z</time>
      </trkpt>
      <trkpt lat="46.12546" lon="6.75559">
        <ele>1567</ele>
        <time>2024-05-14T14:37:50.259Z</time>
      </trkpt>
      <trkpt lat="46.12566" lon="6.75574">
        <ele>1572</ele>
        <time>2024-05-14T14:38:18.331Z</time>
      </trkpt>
      <trkpt lat="46.1258" lon="6.75592">
        <ele>1574</ele>
        <time>2024-05-14T14:38:33.470Z</time>
      </trkpt>
      <trkpt lat="46.1259" lon="6.75623">
        <ele>1580</ele>
        <time>2024-05-14T14:39:06.981Z</time>
      </trkpt>
      <trkpt lat="46.12601" lon="6.75647">
        <ele>1583</ele>
        <time>2024-05-14T14:39:25.839Z</time>
      </trkpt>
      <trkpt lat="46.12611" lon="6.7567">
        <ele>1587</ele>
        <time>2024-05-14T14:39:48.426Z</time>
      </trkpt>
      <trkpt lat="46.12625" lon="6.75698">
        <ele>1589</ele>
        <time>2024-05-14T14:40:06.260Z</time>
      </trkpt>
      <trkpt lat="46.12637" lon="6.75729">
        <ele>1593</ele>
        <time>2024-05-14T14:40:30.607Z</time>
      </trkpt>
      <trkpt lat="46.1264" lon="6.75761">
        <ele>1598</ele>
        <time>2024-05-14T14:40:58.657Z</time>
      </trkpt>
      <trkpt lat="46.1266" lon="6.75778">
        <ele>1604</ele>
        <time>2024-05-14T14:41:32.203Z</time>
      </trkpt>
      <trkpt lat="46.12678" lon="6.7579">
        <ele>1605</ele>
        <time>2024-05-14T14:41:45.428Z</time>
      </trkpt>
      <trkpt lat="46.127" lon="6.75804">
        <ele>1608</ele>
        <time>2024-05-14T14:42:06.131Z</time>
      </trkpt>
      <trkpt lat="46.12722" lon="6.75826">
        <ele>1611</ele>
        <time>2024-05-14T14:42:28.159Z</time>
      </trkpt>
      <trkpt lat="46.1274" lon="6.7585">
        <ele>1612</ele>
        <time>2024-05-14T14:42:44.001Z</time>
      </trkpt>
      <trkpt lat="46.12757" lon="6.75871">
        <ele>1614</ele>
        <time>2024-05-14T14:43:01.013Z</time>
      </trkpt>
      <trkpt lat="46.12771" lon="6.75891">
        <ele>1621</ele>
        <time>2024-05-14T14:43:43.556Z</time>
      </trkpt>
      <trkpt lat="46.12783" lon="6.75915">
        <ele>1622</ele>
        <time>2024-05-14T14:43:57.161Z</time>
      </trkpt>
      <trkpt lat="46.12796" lon="6.75944">
        <ele>1623</ele>
        <time>2024-05-14T14:44:12.682Z</time>
      </trkpt>
      <trkpt lat="46.12814" lon="6.75958">
        <ele>1629</ele>
        <time>2024-05-14T14:44:46.841Z</time>
      </trkpt>
      <trkpt lat="46.12837" lon="6.75971">
        <ele>1632</ele>
        <time>2024-05-14T14:45:07.858Z</time>
      </trkpt>
      <trkpt lat="46.12854" lon="6.75986">
        <ele>1635</ele>
        <time>2024-05-14T14:45:26.710Z</time>
      </trkpt>
      <trkpt lat="46.12872" lon="6.76004">
        <ele>1638</ele>
        <time>2024-05-14T14:45:46.420Z</time>
      </trkpt>
      <trkpt lat="46.12888" lon="6.7603">
        <ele>1639</ele>
        <time>2024-05-14T14:46:02.031Z</time>
      </trkpt>
      <trkpt lat="46.12909" lon="6.76056">
        <ele>1643</ele>
        <time>2024-05-14T14:46:27.636Z</time>
      </trkpt>
      <trkpt lat="46.12925" lon="6.76071">
        <ele>1646</ele>
        <time>2024-05-14T14:46:46.141Z</time>
      </trkpt>
      <trkpt lat="46.12946" lon="6.76084">
        <ele>1647</ele>
        <time>2024-05-14T14:47:01.054Z</time>
      </trkpt>
      <trkpt lat="46.12978" lon="6.76096">
        <ele>1650</ele>
        <time>2024-05-14T14:47:26.307Z</time>
      </trkpt>
      <trkpt lat="46.13009" lon="6.76102">
        <ele>1653</ele>
        <time>2024-05-14T14:47:50.629Z</time>
      </trkpt>
      <trkpt lat="46.13037" lon="6.76097">
        <ele>1654</ele>
        <time>2024-05-14T14:48:08.553Z</time>
      </trkpt>
      <trkpt lat="46.13041" lon="6.76104">
        <ele>1652</ele>
        <time>2024-05-14T14:48:11.679Z</time>
      </trkpt>
      <trkpt lat="46.13038" lon="6.76137">
        <ele>1651</ele>
        <time>2024-05-14T14:48:23.188Z</time>
      </trkpt>
      <trkpt lat="46.13036" lon="6.76167">
        <ele>1650</ele>
        <time>2024-05-14T14:48:33.573Z</time>
      </trkpt>
      <trkpt lat="46.13019" lon="6.76177">
        <ele>1650</ele>
        <time>2024-05-14T14:48:44.005Z</time>
      </trkpt>
      <trkpt lat="46.13015" lon="6.76208">
        <ele>1650</ele>
        <time>2024-05-14T14:48:56.423Z</time>
      </trkpt>
      <trkpt lat="46.13018" lon="6.76236">
        <ele>1650</ele>
        <time>2024-05-14T14:49:07.580Z</time>
      </trkpt>
      <trkpt lat="46.13022" lon="6.7627">
        <ele>1653</ele>
        <time>2024-05-14T14:49:28.215Z</time>
      </trkpt>
      <trkpt lat="46.1303" lon="6.76301">
        <ele>1655</ele>
        <time>2024-05-14T14:49:45.515Z</time>
      </trkpt>
      <trkpt lat="46.13035" lon="6.76333">
        <ele>1655</ele>
        <time>2024-05-14T14:49:58.433Z</time>
      </trkpt>
      <trkpt lat="46.13037" lon="6.76364">
        <ele>1657</ele>
        <time>2024-05-14T14:50:15.025Z</time>
      </trkpt>
      <trkpt lat="46.13019" lon="6.76374">
        <ele>1661</ele>
        <time>2024-05-14T14:50:37.707Z</time>
      </trkpt>
      <trkpt lat="46.12999" lon="6.76364">
        <ele>1662</ele>
        <time>2024-05-14T14:50:51.679Z</time>
      </trkpt>
      <trkpt lat="46.12983" lon="6.76389">
        <ele>1665</ele>
        <time>2024-05-14T14:51:12.164Z</time>
      </trkpt>
      <trkpt lat="46.12967" lon="6.76404">
        <ele>1670</ele>
        <time>2024-05-14T14:51:40.146Z</time>
      </trkpt>
      <trkpt lat="46.12948" lon="6.76404">
        <ele>1675</ele>
        <time>2024-05-14T14:52:08.138Z</time>
      </trkpt>
      <trkpt lat="46.12926" lon="6.76401">
        <ele>1680</ele>
        <time>2024-05-14T14:52:36.153Z</time>
      </trkpt>
      <trkpt lat="46.12901" lon="6.76388">
        <ele>1680</ele>
        <time>2024-05-14T14:52:51.253Z</time>
      </trkpt>
      <trkpt lat="46.1288" lon="6.76384">
        <ele>1684</ele>
        <time>2024-05-14T14:53:14.421Z</time>
      </trkpt>
      <trkpt lat="46.12864" lon="6.76388">
        <ele>1689</ele>
        <time>2024-05-14T14:53:43.240Z</time>
      </trkpt>
      <trkpt lat="46.1285" lon="6.76404">
        <ele>1700</ele>
        <time>2024-05-14T14:54:36.519Z</time>
      </trkpt>
      <trkpt lat="46.12833" lon="6.76418">
        <ele>1703</ele>
        <time>2024-05-14T14:54:55.224Z</time>
        <extensions>
          <visugpx:TrkExtension xmlns:visugpx="https://www.visugpx.com/editgpx/">
            <visugpx:etape>1</visugpx:etape>
            </visugpx:TrkExtension>
        </extensions>
      </trkpt>
      <trkpt lat="46.12812" lon="6.76423">
        <ele>1709</ele>
        <time>2024-05-14T14:55:29.113Z</time>
      </trkpt>
      <trkpt lat="46.12792" lon="6.7643">
        <ele>1712</ele>
        <time>2024-05-14T14:55:48.242Z</time>
      </trkpt>
      <trkpt lat="46.12784" lon="6.76456">
        <ele>1717</ele>
        <time>2024-05-14T14:56:16.169Z</time>
      </trkpt>
      <trkpt lat="46.12774" lon="6.76481">
        <ele>1723</ele>
        <time>2024-05-14T14:56:50.507Z</time>
      </trkpt>
      <trkpt lat="46.1276" lon="6.7651">
        <ele>1726</ele>
        <time>2024-05-14T14:57:11.425Z</time>
      </trkpt>
      <trkpt lat="46.12742" lon="6.76518">
        <ele>1728</ele>
        <time>2024-05-14T14:57:26.606Z</time>
      </trkpt>
      <trkpt lat="46.12721" lon="6.76525">
        <ele>1730</ele>
        <time>2024-05-14T14:57:43.185Z</time>
      </trkpt>
      <trkpt lat="46.127" lon="6.76547">
        <ele>1734</ele>
        <time>2024-05-14T14:58:08.066Z</time>
      </trkpt>
      <trkpt lat="46.12696" lon="6.76574">
        <ele>1742</ele>
        <time>2024-05-14T14:59:00.553Z</time>
      </trkpt>
      <trkpt lat="46.12674" lon="6.76598">
        <ele>1747</ele>
        <time>2024-05-14T14:59:29.854Z</time>
      </trkpt>
      <trkpt lat="46.12658" lon="6.76622">
        <ele>1752</ele>
        <time>2024-05-14T14:59:58.010Z</time>
      </trkpt>
      <trkpt lat="46.1266" lon="6.76649">
        <ele>1757</ele>
        <time>2024-05-14T15:00:26.026Z</time>
      </trkpt>
      <trkpt lat="46.12665" lon="6.76675">
        <ele>1760</ele>
        <time>2024-05-14T15:00:44.381Z</time>
      </trkpt>
      <trkpt lat="46.12672" lon="6.76699">
        <ele>1764</ele>
        <time>2024-05-14T15:01:06.840Z</time>
      </trkpt>
      <trkpt lat="46.1267" lon="6.76727">
        <ele>1767</ele>
        <time>2024-05-14T15:01:25.519Z</time>
      </trkpt>
      <trkpt lat="46.1267" lon="6.76759">
        <ele>1771</ele>
        <time>2024-05-14T15:01:48.997Z</time>
      </trkpt>
      <trkpt lat="46.12678" lon="6.76785">
        <ele>1779</ele>
        <time>2024-05-14T15:02:40.772Z</time>
      </trkpt>
      <trkpt lat="46.12683" lon="6.76811">
        <ele>1787</ele>
        <time>2024-05-14T15:03:33.775Z</time>
      </trkpt>
      <trkpt lat="46.12696" lon="6.76825">
        <ele>1791</ele>
        <time>2024-05-14T15:03:56.103Z</time>
      </trkpt>
      <trkpt lat="46.12712" lon="6.7684">
        <ele>1799</ele>
        <time>2024-05-14T15:04:48.656Z</time>
      </trkpt>
      <trkpt lat="46.12724" lon="6.76871">
        <ele>1802</ele>
        <time>2024-05-14T15:05:09.629Z</time>
      </trkpt>
      <trkpt lat="46.12744" lon="6.76883">
        <ele>1806</ele>
        <time>2024-05-14T15:05:32.943Z</time>
      </trkpt>
      <trkpt lat="46.12758" lon="6.76905">
        <ele>1806</ele>
        <time>2024-05-14T15:05:44.705Z</time>
      </trkpt>
      <trkpt lat="46.12778" lon="6.76922">
        <ele>1811</ele>
        <time>2024-05-14T15:06:12.883Z</time>
      </trkpt>
      <trkpt lat="46.12798" lon="6.76941">
        <ele>1817</ele>
        <time>2024-05-14T15:06:46.383Z</time>
      </trkpt>
      <trkpt lat="46.1282" lon="6.76958">
        <ele>1825</ele>
        <time>2024-05-14T15:07:33.074Z</time>
      </trkpt>
      <trkpt lat="46.12837" lon="6.76971">
        <ele>1829</ele>
        <time>2024-05-14T15:07:55.746Z</time>
      </trkpt>
      <trkpt lat="46.12855" lon="6.76989">
        <ele>1832</ele>
        <time>2024-05-14T15:08:15.456Z</time>
      </trkpt>
      <trkpt lat="46.12864" lon="6.77013">
        <ele>1836</ele>
        <time>2024-05-14T15:08:38.061Z</time>
      </trkpt>
      <trkpt lat="46.12879" lon="6.77035">
        <ele>1837</ele>
        <time>2024-05-14T15:08:52.157Z</time>
      </trkpt>
      <trkpt lat="46.12875" lon="6.77065">
        <ele>1842</ele>
        <time>2024-05-14T15:09:20.090Z</time>
      </trkpt>
      <trkpt lat="46.12865" lon="6.77091">
        <ele>1844</ele>
        <time>2024-05-14T15:09:36.178Z</time>
      </trkpt>
      <trkpt lat="46.12853" lon="6.77108">
        <ele>1846</ele>
        <time>2024-05-14T15:09:50.358Z</time>
      </trkpt>
      <trkpt lat="46.12833" lon="6.77119">
        <ele>1849</ele>
        <time>2024-05-14T15:10:09.846Z</time>
      </trkpt>
      <trkpt lat="46.12816" lon="6.77132">
        <ele>1853</ele>
        <time>2024-05-14T15:10:32.518Z</time>
      </trkpt>
      <trkpt lat="46.1283" lon="6.77145">
        <ele>1859</ele>
        <time>2024-05-14T15:11:09.217Z</time>
      </trkpt>
      <trkpt lat="46.12839" lon="6.77168">
        <ele>1863</ele>
        <time>2024-05-14T15:11:31.715Z</time>
      </trkpt>
      <trkpt lat="46.12856" lon="6.7718">
        <ele>1871</ele>
        <time>2024-05-14T15:12:24.455Z</time>
      </trkpt>
      <trkpt lat="46.12868" lon="6.772">
        <ele>1877</ele>
        <time>2024-05-14T15:12:59.727Z</time>
      </trkpt>
      <trkpt lat="46.12876" lon="6.77224">
        <ele>1882</ele>
        <time>2024-05-14T15:13:27.802Z</time>
      </trkpt>
      <trkpt lat="46.12884" lon="6.77247">
        <ele>1888</ele>
        <time>2024-05-14T15:14:03.442Z</time>
      </trkpt>
      <trkpt lat="46.12892" lon="6.77275">
        <ele>1896</ele>
        <time>2024-05-14T15:14:53.681Z</time>
      </trkpt>
      <trkpt lat="46.12903" lon="6.773">
        <ele>1901</ele>
        <time>2024-05-14T15:15:21.591Z</time>
      </trkpt>
      <trkpt lat="46.12917" lon="6.77323">
        <ele>1908</ele>
        <time>2024-05-14T15:16:02.864Z</time>
      </trkpt>
      <trkpt lat="46.12939" lon="6.77338">
        <ele>1912</ele>
        <time>2024-05-14T15:16:27.106Z</time>
      </trkpt>
      <trkpt lat="46.12958" lon="6.77352">
        <ele>1918</ele>
        <time>2024-05-14T15:17:00.981Z</time>
      </trkpt>
      <trkpt lat="46.12977" lon="6.77367">
        <ele>1922</ele>
        <time>2024-05-14T15:17:24.293Z</time>
      </trkpt>
      <trkpt lat="46.12996" lon="6.77379">
        <ele>1925</ele>
        <time>2024-05-14T15:17:43.491Z</time>
      </trkpt>
      <trkpt lat="46.13016" lon="6.77394">
        <ele>1933</ele>
        <time>2024-05-14T15:18:32.087Z</time>
      </trkpt>
      <trkpt lat="46.13029" lon="6.77419">
        <ele>1937</ele>
        <time>2024-05-14T15:18:55.401Z</time>
      </trkpt>
      <trkpt lat="46.13038" lon="6.77447">
        <ele>1944</ele>
        <time>2024-05-14T15:19:36.550Z</time>
      </trkpt>
      <trkpt lat="46.13033" lon="6.77471">
        <ele>1952</ele>
        <time>2024-05-14T15:20:28.363Z</time>
      </trkpt>
      <trkpt lat="46.13034" lon="6.77503">
        <ele>1960</ele>
        <time>2024-05-14T15:21:17.293Z</time>
      </trkpt>
      <trkpt lat="46.13031" lon="6.77536">
        <ele>1969</ele>
        <time>2024-05-14T15:22:14.456Z</time>
      </trkpt>
      <trkpt lat="46.13039" lon="6.7756">
        <ele>1974</ele>
        <time>2024-05-14T15:22:42.532Z</time>
      </trkpt>
      <trkpt lat="46.13051" lon="6.77574">
        <ele>1988</ele>
        <time>2024-05-14T15:23:28.568Z</time>
      </trkpt>
      <trkpt lat="46.13061" lon="6.77595">
        <ele>1995</ele>
        <time>2024-05-14T15:24:13.370Z</time>
      </trkpt>
      <trkpt lat="46.13058" lon="6.77627">
        <ele>2004</ele>
        <time>2024-05-14T15:25:11.372Z</time>
      </trkpt>
      <trkpt lat="46.13054" lon="6.77662">
        <ele>2020</ele>
        <time>2024-05-14T15:26:24.709Z</time>
      </trkpt>
      <trkpt lat="46.13062" lon="6.77685">
        <ele>2027</ele>
        <time>2024-05-14T15:27:09.297Z</time>
      </trkpt>
      <trkpt lat="46.13057" lon="6.77709">
        <ele>2033</ele>
        <time>2024-05-14T15:27:45.323Z</time>
      </trkpt>
      <trkpt lat="46.13066" lon="6.77733">
        <ele>2046</ele>
        <time>2024-05-14T15:28:41.739Z</time>
      </trkpt>
      <trkpt lat="46.13075" lon="6.77756">
        <ele>2057</ele>
        <time>2024-05-14T15:29:36.347Z</time>
      </trkpt>
      <trkpt lat="46.13078" lon="6.77776">
        <ele>2063</ele>
        <time>2024-05-14T15:30:15.917Z</time>
      </trkpt>
      <trkpt lat="46.1308" lon="6.77802">
        <ele>2071</ele>
        <time>2024-05-14T15:31:09.542Z</time>
      </trkpt>
      <trkpt lat="46.13094" lon="6.77829">
        <ele>2080</ele>
        <time>2024-05-14T15:32:06.345Z</time>
      </trkpt>
      <trkpt lat="46.13105" lon="6.77853">
        <ele>2084</ele>
        <time>2024-05-14T15:32:29.178Z</time>
      </trkpt>
      <trkpt lat="46.13118" lon="6.7789">
        <ele>2087</ele>
        <time>2024-05-14T15:32:52.200Z</time>
      </trkpt>
      <trkpt lat="46.13131" lon="6.7793">
        <ele>2090</ele>
        <time>2024-05-14T15:33:16.180Z</time>
      </trkpt>
      <trkpt lat="46.13136" lon="6.77968">
        <ele>2094</ele>
        <time>2024-05-14T15:33:41.415Z</time>
      </trkpt>
      <trkpt lat="46.13144" lon="6.77999">
        <ele>2099</ele>
        <time>2024-05-14T15:34:09.544Z</time>
      </trkpt>
      <trkpt lat="46.1315" lon="6.78035">
        <ele>2104</ele>
        <time>2024-05-14T15:34:38.274Z</time>
      </trkpt>
      <trkpt lat="46.1315" lon="6.78064">
        <ele>2106</ele>
        <time>2024-05-14T15:34:54.098Z</time>
      </trkpt>
      <trkpt lat="46.13152" lon="6.78096">
        <ele>2111</ele>
        <time>2024-05-14T15:35:22.133Z</time>
      </trkpt>
      <trkpt lat="46.13158" lon="6.78125">
        <ele>2114</ele>
        <time>2024-05-14T15:35:41.433Z</time>
      </trkpt>
      <trkpt lat="46.13158" lon="6.78156">
        <ele>2119</ele>
        <time>2024-05-14T15:36:09.387Z</time>
      </trkpt>
      <trkpt lat="46.13162" lon="6.78196">
        <ele>2126</ele>
        <time>2024-05-14T15:36:48.468Z</time>
      </trkpt>
      <trkpt lat="46.13163" lon="6.78226">
        <ele>2131</ele>
        <time>2024-05-14T15:37:16.385Z</time>
      </trkpt>
      <trkpt lat="46.13168" lon="6.78268">
        <ele>2138</ele>
        <time>2024-05-14T15:37:55.485Z</time>
      </trkpt>
      <trkpt lat="46.13172" lon="6.78301">
        <ele>2145</ele>
        <time>2024-05-14T15:38:35.600Z</time>
      </trkpt>
      <trkpt lat="46.1318" lon="6.78332">
        <ele>2147</ele>
        <time>2024-05-14T15:38:52.900Z</time>
      </trkpt>
      <trkpt lat="46.13187" lon="6.78359">
        <ele>2150</ele>
        <time>2024-05-14T15:39:11.773Z</time>
      </trkpt>
      <trkpt lat="46.13192" lon="6.78384">
        <ele>2153</ele>
        <time>2024-05-14T15:39:29.873Z</time>
      </trkpt>
      <trkpt lat="46.13201" lon="6.78412">
        <ele>2154</ele>
        <time>2024-05-14T15:39:43.969Z</time>
      </trkpt>
      <trkpt lat="46.13203" lon="6.78441">
        <ele>2157</ele>
        <time>2024-05-14T15:40:02.934Z</time>
      </trkpt>
      <trkpt lat="46.13206" lon="6.78473">
        <ele>2159</ele>
        <time>2024-05-14T15:40:19.946Z</time>
      </trkpt>
      <trkpt lat="46.13214" lon="6.78498">
        <ele>2162</ele>
        <time>2024-05-14T15:40:38.452Z</time>
      </trkpt>
      <trkpt lat="46.13222" lon="6.78529">
        <ele>2163</ele>
        <time>2024-05-14T15:40:53.406Z</time>
      </trkpt>
      <trkpt lat="46.1324" lon="6.78547">
        <ele>2163</ele>
        <time>2024-05-14T15:41:05.850Z</time>
      </trkpt>
      <trkpt lat="46.13249" lon="6.78575">
        <ele>2163</ele>
        <time>2024-05-14T15:41:18.004Z</time>
      </trkpt>
      <trkpt lat="46.13255" lon="6.78602">
        <ele>2163</ele>
        <time>2024-05-14T15:41:29.170Z</time>
      </trkpt>
      <trkpt lat="46.13256" lon="6.78632">
        <ele>2164</ele>
        <time>2024-05-14T15:41:42.944Z</time>
      </trkpt>
      <trkpt lat="46.13254" lon="6.7866">
        <ele>2165</ele>
        <time>2024-05-14T15:41:55.990Z</time>
      </trkpt>
      <trkpt lat="46.13247" lon="6.78693">
        <ele>2170</ele>
        <time>2024-05-14T15:42:24.302Z</time>
      </trkpt>
      <trkpt lat="46.13244" lon="6.78722">
        <ele>2175</ele>
        <time>2024-05-14T15:42:52.212Z</time>
      </trkpt>
      <trkpt lat="46.13246" lon="6.78749">
        <ele>2178</ele>
        <time>2024-05-14T15:43:10.613Z</time>
      </trkpt>
      <trkpt lat="46.13253" lon="6.78777">
        <ele>2187</ele>
        <time>2024-05-14T15:44:10.700Z</time>
      </trkpt>
      <trkpt lat="46.13265" lon="6.78817">
        <ele>2190</ele>
        <time>2024-05-14T15:44:34.467Z</time>
      </trkpt>
      <trkpt lat="46.13274" lon="6.78848">
        <ele>2194</ele>
        <time>2024-05-14T15:44:58.326Z</time>
      </trkpt>
      <trkpt lat="46.13278" lon="6.78875">
        <ele>2196</ele>
        <time>2024-05-14T15:45:13.658Z</time>
      </trkpt>
      <trkpt lat="46.13275" lon="6.78908">
        <ele>2199</ele>
        <time>2024-05-14T15:45:33.901Z</time>
      </trkpt>
      <trkpt lat="46.13276" lon="6.78935">
        <ele>2202</ele>
        <time>2024-05-14T15:45:52.271Z</time>
      </trkpt>
      <trkpt lat="46.13277" lon="6.78965">
        <ele>2204</ele>
        <time>2024-05-14T15:46:08.465Z</time>
      </trkpt>
      <trkpt lat="46.13289" lon="6.78999">
        <ele>2209</ele>
        <time>2024-05-14T15:46:37.415Z</time>
      </trkpt>
      <trkpt lat="46.13296" lon="6.79024">
        <ele>2213</ele>
        <time>2024-05-14T15:46:59.978Z</time>
      </trkpt>
      <trkpt lat="46.13303" lon="6.79051">
        <ele>2221</ele>
        <time>2024-05-14T15:47:51.430Z</time>
      </trkpt>
      <trkpt lat="46.13317" lon="6.79071">
        <ele>2228</ele>
        <time>2024-05-14T15:48:33.974Z</time>
      </trkpt>
      <trkpt lat="46.13334" lon="6.79094">
        <ele>2234</ele>
        <time>2024-05-14T15:49:07.511Z</time>
      </trkpt>
      <trkpt lat="46.13343" lon="6.79118">
        <ele>2239</ele>
        <time>2024-05-14T15:49:35.515Z</time>
      </trkpt>
      <trkpt lat="46.13358" lon="6.7915">
        <ele>2244</ele>
        <time>2024-05-14T15:50:04.563Z</time>
      </trkpt>
      <trkpt lat="46.13374" lon="6.7917">
        <ele>2248</ele>
        <time>2024-05-14T15:50:27.728Z</time>
      </trkpt>
      <trkpt lat="46.13389" lon="6.79191">
        <ele>2256</ele>
        <time>2024-05-14T15:51:18.071Z</time>
      </trkpt>
      <trkpt lat="46.13398" lon="6.79215">
        <ele>2261</ele>
        <time>2024-05-14T15:51:46.074Z</time>
      </trkpt>
      <trkpt lat="46.13408" lon="6.79241">
        <ele>2267</ele>
        <time>2024-05-14T15:52:20.176Z</time>
      </trkpt>
      <trkpt lat="46.13416" lon="6.79268">
        <ele>2269</ele>
        <time>2024-05-14T15:52:36.130Z</time>
      </trkpt>
      <trkpt lat="46.13428" lon="6.79301">
        <ele>2274</ele>
        <time>2024-05-14T15:53:04.905Z</time>
      </trkpt>
      <trkpt lat="46.1344" lon="6.79325">
        <ele>2282</ele>
        <time>2024-05-14T15:53:55.710Z</time>
      </trkpt>
      <trkpt lat="46.13451" lon="6.79348">
        <ele>2283</ele>
        <time>2024-05-14T15:54:08.678Z</time>
      </trkpt>
      <trkpt lat="46.13459" lon="6.79376">
        <ele>2284</ele>
        <time>2024-05-14T15:54:22.549Z</time>
      </trkpt>
      <trkpt lat="46.13476" lon="6.79407">
        <ele>2293</ele>
        <time>2024-05-14T15:55:15.531Z</time>
      </trkpt>
      <trkpt lat="46.1349" lon="6.79432">
        <ele>2298</ele>
        <time>2024-05-14T15:55:43.567Z</time>
      </trkpt>
      <trkpt lat="46.13504" lon="6.7945">
        <ele>2305</ele>
        <time>2024-05-14T15:56:27.091Z</time>
      </trkpt>
      <trkpt lat="46.13498" lon="6.79477">
        <ele>2312</ele>
        <time>2024-05-14T15:57:09.684Z</time>
      </trkpt>
      <trkpt lat="46.13499" lon="6.79517">
        <ele>2321</ele>
        <time>2024-05-14T15:58:02.431Z</time>
      </trkpt>
      <trkpt lat="46.13496" lon="6.79546">
        <ele>2326</ele>
        <time>2024-05-14T15:58:30.340Z</time>
      </trkpt>
      <trkpt lat="46.13498" lon="6.79573">
        <ele>2331</ele>
        <time>2024-05-14T15:58:58.357Z</time>
      </trkpt>
      <trkpt lat="46.13494" lon="6.79606">
        <ele>2335</ele>
        <time>2024-05-14T15:59:22.188Z</time>
      </trkpt>
      <trkpt lat="46.13497" lon="6.79649">
        <ele>2339</ele>
        <time>2024-05-14T15:59:48.808Z</time>
      </trkpt>
      <trkpt lat="46.13505" lon="6.79681">
        <ele>2343</ele>
        <time>2024-05-14T16:00:12.768Z</time>
      </trkpt>
      <trkpt lat="46.13514" lon="6.79715">
        <ele>2347</ele>
        <time>2024-05-14T16:00:37.354Z</time>
      </trkpt>
      <trkpt lat="46.13522" lon="6.79749">
        <ele>2354</ele>
        <time>2024-05-14T16:01:16.877Z</time>
      </trkpt>
      <trkpt lat="46.13528" lon="6.79781">
        <ele>2362</ele>
        <time>2024-05-14T16:02:05.074Z</time>
      </trkpt>
      <trkpt lat="46.13532" lon="6.79811">
        <ele>2371</ele>
        <time>2024-05-14T16:03:04.549Z</time>
      </trkpt>
      <trkpt lat="46.13537" lon="6.79843">
        <ele>2378</ele>
        <time>2024-05-14T16:03:44.896Z</time>
      </trkpt>
      <trkpt lat="46.1354" lon="6.79877">
        <ele>2385</ele>
        <time>2024-05-14T16:04:24.789Z</time>
      </trkpt>
      <trkpt lat="46.13542" lon="6.7991">
        <ele>2388</ele>
        <time>2024-05-14T16:04:44.981Z</time>
      </trkpt>
      <trkpt lat="46.13547" lon="6.7994">
        <ele>2394</ele>
        <time>2024-05-14T16:05:18.843Z</time>
      </trkpt>
      <trkpt lat="46.13544" lon="6.79972">
        <ele>2399</ele>
        <time>2024-05-14T16:05:46.893Z</time>
      </trkpt>
      <trkpt lat="46.13545" lon="6.80006">
        <ele>2401</ele>
        <time>2024-05-14T16:06:04.541Z</time>
      </trkpt>
      <trkpt lat="46.13552" lon="6.80038">
        <ele>2401</ele>
        <time>2024-05-14T16:06:17.755Z</time>
      </trkpt>
      <trkpt lat="46.13548" lon="6.8007">
        <ele>2401</ele>
        <time>2024-05-14T16:06:30.558Z</time>
      </trkpt>
      <trkpt lat="46.13541" lon="6.80105">
        <ele>2399</ele>
        <time>2024-05-14T16:06:43.110Z</time>
      </trkpt>
      <trkpt lat="46.13532" lon="6.80131">
        <ele>2392</ele>
        <time>2024-05-14T16:06:53.123Z</time>
      </trkpt>
      <trkpt lat="46.13514" lon="6.80127">
        <ele>2388</ele>
        <time>2024-05-14T16:07:02.178Z</time>
      </trkpt>
      <trkpt lat="46.13504" lon="6.80132">
        <ele>2381</ele>
        <time>2024-05-14T16:07:07.440Z</time>
      </trkpt>
      <trkpt lat="46.13506" lon="6.80162">
        <ele>2368</ele>
        <time>2024-05-14T16:07:17.824Z</time>
      </trkpt>
      <trkpt lat="46.13512" lon="6.80189">
        <ele>2364</ele>
        <time>2024-05-14T16:07:27.594Z</time>
      </trkpt>
      <trkpt lat="46.13523" lon="6.80219">
        <ele>2359</ele>
        <time>2024-05-14T16:07:39.288Z</time>
      </trkpt>
      <trkpt lat="46.13528" lon="6.80251">
        <ele>2344</ele>
        <time>2024-05-14T16:07:50.590Z</time>
      </trkpt>
      <trkpt lat="46.13533" lon="6.8028">
        <ele>2340</ele>
        <time>2024-05-14T16:08:00.886Z</time>
      </trkpt>
      <trkpt lat="46.13542" lon="6.80308">
        <ele>2339</ele>
        <time>2024-05-14T16:08:11.521Z</time>
      </trkpt>
      <trkpt lat="46.13541" lon="6.80335">
        <ele>2338</ele>
        <time>2024-05-14T16:08:20.837Z</time>
      </trkpt>
      <trkpt lat="46.13539" lon="6.80363">
        <ele>2338</ele>
        <time>2024-05-14T16:08:31.921Z</time>
      </trkpt>
      <trkpt lat="46.13543" lon="6.80394">
        <ele>2336</ele>
        <time>2024-05-14T16:08:42.785Z</time>
      </trkpt>
      <trkpt lat="46.1354" lon="6.80433">
        <ele>2336</ele>
        <time>2024-05-14T16:08:58.236Z</time>
      </trkpt>
      <trkpt lat="46.13541" lon="6.80468">
        <ele>2334</ele>
        <time>2024-05-14T16:09:10.305Z</time>
      </trkpt>
      <trkpt lat="46.13543" lon="6.80502">
        <ele>2333</ele>
        <time>2024-05-14T16:09:22.141Z</time>
      </trkpt>
      <trkpt lat="46.13539" lon="6.80535">
        <ele>2328</ele>
        <time>2024-05-14T16:09:33.683Z</time>
      </trkpt>
      <trkpt lat="46.13536" lon="6.80571">
        <ele>2328</ele>
        <time>2024-05-14T16:09:47.961Z</time>
      </trkpt>
      <trkpt lat="46.13532" lon="6.80599">
        <ele>2330</ele>
        <time>2024-05-14T16:10:03.638Z</time>
      </trkpt>
      <trkpt lat="46.13526" lon="6.80634">
        <ele>2330</ele>
        <time>2024-05-14T16:10:17.835Z</time>
      </trkpt>
      <trkpt lat="46.13526" lon="6.80664">
        <ele>2329</ele>
        <time>2024-05-14T16:10:28.172Z</time>
      </trkpt>
      <trkpt lat="46.13526" lon="6.80701">
        <ele>2329</ele>
        <time>2024-05-14T16:10:42.741Z</time>
      </trkpt>
      <trkpt lat="46.13526" lon="6.80732">
        <ele>2327</ele>
        <time>2024-05-14T16:10:53.422Z</time>
      </trkpt>
      <trkpt lat="46.13525" lon="6.80761">
        <ele>2326</ele>
        <time>2024-05-14T16:11:03.426Z</time>
      </trkpt>
      <trkpt lat="46.13514" lon="6.80804">
        <ele>2317</ele>
        <time>2024-05-14T16:11:19.219Z</time>
      </trkpt>
      <trkpt lat="46.13507" lon="6.8084">
        <ele>2316</ele>
        <time>2024-05-14T16:11:32.329Z</time>
      </trkpt>
      <trkpt lat="46.13502" lon="6.80876">
        <ele>2315</ele>
        <time>2024-05-14T16:11:45.176Z</time>
      </trkpt>
      <trkpt lat="46.13494" lon="6.80908">
        <ele>2308</ele>
        <time>2024-05-14T16:11:56.897Z</time>
      </trkpt>
      <trkpt lat="46.13481" lon="6.80935">
        <ele>2301</ele>
        <time>2024-05-14T16:12:08.225Z</time>
      </trkpt>
      <trkpt lat="46.13463" lon="6.80954">
        <ele>2294</ele>
        <time>2024-05-14T16:12:19.313Z</time>
      </trkpt>
      <trkpt lat="46.13445" lon="6.8097">
        <ele>2290</ele>
        <time>2024-05-14T16:12:29.824Z</time>
      </trkpt>
      <trkpt lat="46.13428" lon="6.80974">
        <ele>2289</ele>
        <time>2024-05-14T16:12:38.388Z</time>
      </trkpt>
      <trkpt lat="46.13423" lon="6.80945">
        <ele>2285</ele>
        <time>2024-05-14T16:12:48.685Z</time>
      </trkpt>
      <trkpt lat="46.13419" lon="6.80918">
        <ele>2278</ele>
        <time>2024-05-14T16:12:58.198Z</time>
      </trkpt>
      <trkpt lat="46.13427" lon="6.80886">
        <ele>2271</ele>
        <time>2024-05-14T16:13:09.919Z</time>
      </trkpt>
      <trkpt lat="46.13429" lon="6.80857">
        <ele>2265</ele>
        <time>2024-05-14T16:13:19.960Z</time>
      </trkpt>
      <trkpt lat="46.13426" lon="6.80831">
        <ele>2259</ele>
        <time>2024-05-14T16:13:29.042Z</time>
      </trkpt>
      <trkpt lat="46.13425" lon="6.80802">
        <ele>2249</ele>
        <time>2024-05-14T16:13:39.046Z</time>
      </trkpt>
      <trkpt lat="46.13414" lon="6.80778">
        <ele>2239</ele>
        <time>2024-05-14T16:13:48.961Z</time>
      </trkpt>
      <trkpt lat="46.13406" lon="6.80752">
        <ele>2235</ele>
        <time>2024-05-14T16:13:58.762Z</time>
      </trkpt>
      <trkpt lat="46.13392" lon="6.80733">
        <ele>2228</ele>
        <time>2024-05-14T16:14:08.318Z</time>
      </trkpt>
      <trkpt lat="46.13376" lon="6.80718">
        <ele>2219</ele>
        <time>2024-05-14T16:14:17.805Z</time>
      </trkpt>
      <trkpt lat="46.13386" lon="6.80696">
        <ele>2215</ele>
        <time>2024-05-14T16:14:26.870Z</time>
      </trkpt>
      <trkpt lat="46.13385" lon="6.80672">
        <ele>2209</ele>
        <time>2024-05-14T16:14:35.154Z</time>
      </trkpt>
      <trkpt lat="46.13364" lon="6.80663">
        <ele>2198</ele>
        <time>2024-05-14T16:14:46.046Z</time>
      </trkpt>
      <trkpt lat="46.13349" lon="6.80655">
        <ele>2188</ele>
        <time>2024-05-14T16:14:53.997Z</time>
      </trkpt>
      <trkpt lat="46.13337" lon="6.80644">
        <ele>2184</ele>
        <time>2024-05-14T16:15:01.066Z</time>
      </trkpt>
      <trkpt lat="46.13324" lon="6.80628">
        <ele>2178</ele>
        <time>2024-05-14T16:15:09.561Z</time>
      </trkpt>
      <trkpt lat="46.13312" lon="6.80604">
        <ele>2174</ele>
        <time>2024-05-14T16:15:19.758Z</time>
      </trkpt>
      <trkpt lat="46.13303" lon="6.80578">
        <ele>2168</ele>
        <time>2024-05-14T16:15:29.772Z</time>
      </trkpt>
      <trkpt lat="46.13274" lon="6.80556">
        <ele>2161</ele>
        <time>2024-05-14T16:15:46.062Z</time>
      </trkpt>
      <trkpt lat="46.13244" lon="6.80499">
        <ele>2148</ele>
        <time>2024-05-14T16:16:10.724Z</time>
      </trkpt>
      <trkpt lat="46.1323" lon="6.80469">
        <ele>2143</ele>
        <time>2024-05-14T16:16:23.186Z</time>
      </trkpt>
      <trkpt lat="46.13218" lon="6.8044">
        <ele>2143</ele>
        <time>2024-05-14T16:16:36.487Z</time>
      </trkpt>
      <trkpt lat="46.1322" lon="6.80408">
        <ele>2130</ele>
        <time>2024-05-14T16:16:47.558Z</time>
      </trkpt>
      <trkpt lat="46.13228" lon="6.80381">
        <ele>2125</ele>
        <time>2024-05-14T16:16:57.676Z</time>
      </trkpt>
      <trkpt lat="46.13221" lon="6.8035">
        <ele>2119</ele>
        <time>2024-05-14T16:17:08.910Z</time>
      </trkpt>
      <trkpt lat="46.13214" lon="6.80322">
        <ele>2113</ele>
        <time>2024-05-14T16:17:19.166Z</time>
      </trkpt>
      <trkpt lat="46.1319" lon="6.80318">
        <ele>2104</ele>
        <time>2024-05-14T16:17:31.178Z</time>
      </trkpt>
      <trkpt lat="46.13167" lon="6.8031">
        <ele>2104</ele>
        <time>2024-05-14T16:17:44.622Z</time>
      </trkpt>
      <trkpt lat="46.13154" lon="6.80273">
        <ele>2104</ele>
        <time>2024-05-14T16:18:00.958Z</time>
      </trkpt>
      <trkpt lat="46.13143" lon="6.80238">
        <ele>2111</ele>
        <time>2024-05-14T16:18:40.142Z</time>
      </trkpt>
      <trkpt lat="46.13131" lon="6.80211">
        <ele>2109</ele>
        <time>2024-05-14T16:18:51.195Z</time>
      </trkpt>
      <trkpt lat="46.1312" lon="6.80188">
        <ele>2108</ele>
        <time>2024-05-14T16:19:00.824Z</time>
      </trkpt>
      <trkpt lat="46.13109" lon="6.80166">
        <ele>2106</ele>
        <time>2024-05-14T16:19:10.171Z</time>
      </trkpt>
      <trkpt lat="46.13111" lon="6.80139">
        <ele>2103</ele>
        <time>2024-05-14T16:19:19.528Z</time>
      </trkpt>
      <trkpt lat="46.13114" lon="6.80113">
        <ele>2101</ele>
        <time>2024-05-14T16:19:28.610Z</time>
      </trkpt>
      <trkpt lat="46.13115" lon="6.80086">
        <ele>2095</ele>
        <time>2024-05-14T16:19:37.926Z</time>
      </trkpt>
      <trkpt lat="46.13104" lon="6.80067">
        <ele>2088</ele>
        <time>2024-05-14T16:19:46.457Z</time>
      </trkpt>
      <trkpt lat="46.13094" lon="6.80042">
        <ele>2084</ele>
        <time>2024-05-14T16:19:56.403Z</time>
      </trkpt>
      <trkpt lat="46.13087" lon="6.80018">
        <ele>2074</ele>
        <time>2024-05-14T16:20:05.375Z</time>
      </trkpt>
      <trkpt lat="46.13074" lon="6.79997">
        <ele>2068</ele>
        <time>2024-05-14T16:20:15.078Z</time>
      </trkpt>
      <trkpt lat="46.13062" lon="6.79975">
        <ele>2057</ele>
        <time>2024-05-14T16:20:24.725Z</time>
      </trkpt>
      <trkpt lat="46.13047" lon="6.79957">
        <ele>2049</ele>
        <time>2024-05-14T16:20:34.425Z</time>
      </trkpt>
      <trkpt lat="46.13034" lon="6.79933">
        <ele>2043</ele>
        <time>2024-05-14T16:20:44.921Z</time>
      </trkpt>
      <trkpt lat="46.13022" lon="6.79913">
        <ele>2035</ele>
        <time>2024-05-14T16:20:54.037Z</time>
      </trkpt>
      <trkpt lat="46.13001" lon="6.79903">
        <ele>2028</ele>
        <time>2024-05-14T16:21:05.032Z</time>
      </trkpt>
      <trkpt lat="46.12981" lon="6.79886">
        <ele>2024</ele>
        <time>2024-05-14T16:21:16.573Z</time>
      </trkpt>
      <trkpt lat="46.12966" lon="6.79866">
        <ele>2024</ele>
        <time>2024-05-14T16:21:28.178Z</time>
      </trkpt>
      <trkpt lat="46.1295" lon="6.79851">
        <ele>2021</ele>
        <time>2024-05-14T16:21:37.665Z</time>
      </trkpt>
      <trkpt lat="46.12933" lon="6.79845">
        <ele>2019</ele>
        <time>2024-05-14T16:21:46.367Z</time>
      </trkpt>
      <trkpt lat="46.12917" lon="6.79822">
        <ele>2017</ele>
        <time>2024-05-14T16:21:57.596Z</time>
      </trkpt>
      <trkpt lat="46.12905" lon="6.79794">
        <ele>2013</ele>
        <time>2024-05-14T16:22:08.940Z</time>
      </trkpt>
      <trkpt lat="46.12895" lon="6.79774">
        <ele>2008</ele>
        <time>2024-05-14T16:22:17.438Z</time>
      </trkpt>
      <trkpt lat="46.12886" lon="6.79752">
        <ele>2006</ele>
        <time>2024-05-14T16:22:26.241Z</time>
      </trkpt>
      <trkpt lat="46.12881" lon="6.7972">
        <ele>2000</ele>
        <time>2024-05-14T16:22:37.545Z</time>
      </trkpt>
      <trkpt lat="46.12875" lon="6.797">
        <ele>1994</ele>
        <time>2024-05-14T16:22:45.054Z</time>
      </trkpt>
      <trkpt lat="46.1288" lon="6.7967">
        <ele>1987</ele>
        <time>2024-05-14T16:22:55.687Z</time>
      </trkpt>
      <trkpt lat="46.12875" lon="6.79648">
        <ele>1980</ele>
        <time>2024-05-14T16:23:03.665Z</time>
      </trkpt>
      <trkpt lat="46.12872" lon="6.79628">
        <ele>1971</ele>
        <time>2024-05-14T16:23:10.716Z</time>
      </trkpt>
      <trkpt lat="46.12865" lon="6.79609">
        <ele>1959</ele>
        <time>2024-05-14T16:23:18.131Z</time>
      </trkpt>
      <trkpt lat="46.12864" lon="6.79588">
        <ele>1957</ele>
        <time>2024-05-14T16:23:25.384Z</time>
      </trkpt>
      <trkpt lat="46.12849" lon="6.79569">
        <ele>1956</ele>
        <time>2024-05-14T16:23:35.308Z</time>
      </trkpt>
      <trkpt lat="46.12838" lon="6.79547">
        <ele>1955</ele>
        <time>2024-05-14T16:23:44.656Z</time>
      </trkpt>
      <trkpt lat="46.1283" lon="6.79521">
        <ele>1953</ele>
        <time>2024-05-14T16:23:54.458Z</time>
      </trkpt>
      <trkpt lat="46.12828" lon="6.79493">
        <ele>1951</ele>
        <time>2024-05-14T16:24:04.158Z</time>
      </trkpt>
      <trkpt lat="46.12809" lon="6.79492">
        <ele>1952</ele>
        <time>2024-05-14T16:24:16.930Z</time>
      </trkpt>
      <trkpt lat="46.12791" lon="6.79489">
        <ele>1953</ele>
        <time>2024-05-14T16:24:29.206Z</time>
      </trkpt>
      <trkpt lat="46.12774" lon="6.79465">
        <ele>1953</ele>
        <time>2024-05-14T16:24:42.720Z</time>
      </trkpt>
      <trkpt lat="46.12771" lon="6.7943">
        <ele>1944</ele>
        <time>2024-05-14T16:24:54.873Z</time>
      </trkpt>
      <trkpt lat="46.12762" lon="6.79405">
        <ele>1944</ele>
        <time>2024-05-14T16:25:05.967Z</time>
      </trkpt>
      <trkpt lat="46.12752" lon="6.79387">
        <ele>1942</ele>
        <time>2024-05-14T16:25:13.917Z</time>
      </trkpt>
      <trkpt lat="46.12748" lon="6.79363">
        <ele>1940</ele>
        <time>2024-05-14T16:25:22.423Z</time>
      </trkpt>
      <trkpt lat="46.1275" lon="6.79333">
        <ele>1931</ele>
        <time>2024-05-14T16:25:32.808Z</time>
      </trkpt>
      <trkpt lat="46.12743" lon="6.79308">
        <ele>1921</ele>
        <time>2024-05-14T16:25:42.100Z</time>
      </trkpt>
      <trkpt lat="46.12738" lon="6.79281">
        <ele>1921</ele>
        <time>2024-05-14T16:25:53.106Z</time>
      </trkpt>
      <trkpt lat="46.12725" lon="6.79255">
        <ele>1918</ele>
        <time>2024-05-14T16:26:04.153Z</time>
      </trkpt>
      <trkpt lat="46.12717" lon="6.79228">
        <ele>1918</ele>
        <time>2024-05-14T16:26:15.717Z</time>
      </trkpt>
      <trkpt lat="46.12708" lon="6.79203">
        <ele>1918</ele>
        <time>2024-05-14T16:26:26.812Z</time>
      </trkpt>
      <trkpt lat="46.12699" lon="6.79178">
        <ele>1915</ele>
        <time>2024-05-14T16:26:36.520Z</time>
      </trkpt>
      <trkpt lat="46.12693" lon="6.79152">
        <ele>1903</ele>
        <time>2024-05-14T16:26:45.963Z</time>
      </trkpt>
      <trkpt lat="46.12686" lon="6.79124">
        <ele>1906</ele>
        <time>2024-05-14T16:27:05.113Z</time>
      </trkpt>
      <trkpt lat="46.12668" lon="6.79092">
        <ele>1905</ele>
        <time>2024-05-14T16:27:19.719Z</time>
      </trkpt>
      <trkpt lat="46.1266" lon="6.79063">
        <ele>1904</ele>
        <time>2024-05-14T16:27:30.475Z</time>
      </trkpt>
      <trkpt lat="46.12653" lon="6.79038">
        <ele>1880</ele>
        <time>2024-05-14T16:27:39.766Z</time>
      </trkpt>
      <trkpt lat="46.12661" lon="6.79016">
        <ele>1865</ele>
        <time>2024-05-14T16:27:48.327Z</time>
      </trkpt>
      <trkpt lat="46.12663" lon="6.78988">
        <ele>1864</ele>
        <time>2024-05-14T16:27:58.027Z</time>
      </trkpt>
      <trkpt lat="46.12669" lon="6.78962">
        <ele>1867</ele>
        <time>2024-05-14T16:28:16.498Z</time>
      </trkpt>
      <trkpt lat="46.12661" lon="6.78931">
        <ele>1870</ele>
        <time>2024-05-14T16:28:36.676Z</time>
      </trkpt>
      <trkpt lat="46.12648" lon="6.7891">
        <ele>1870</ele>
        <time>2024-05-14T16:28:47.765Z</time>
      </trkpt>
      <trkpt lat="46.12635" lon="6.78887">
        <ele>1872</ele>
        <time>2024-05-14T16:29:03.833Z</time>
      </trkpt>
      <trkpt lat="46.12624" lon="6.78866">
        <ele>1876</ele>
        <time>2024-05-14T16:29:26.322Z</time>
      </trkpt>
      <trkpt lat="46.12614" lon="6.78841">
        <ele>1877</ele>
        <time>2024-05-14T16:29:39.646Z</time>
      </trkpt>
      <trkpt lat="46.12604" lon="6.78818">
        <ele>1877</ele>
        <time>2024-05-14T16:29:50.339Z</time>
      </trkpt>
      <trkpt lat="46.12593" lon="6.78796">
        <ele>1876</ele>
        <time>2024-05-14T16:29:59.687Z</time>
      </trkpt>
      <trkpt lat="46.12582" lon="6.78773">
        <ele>1874</ele>
        <time>2024-05-14T16:30:09.317Z</time>
      </trkpt>
      <trkpt lat="46.12572" lon="6.78752">
        <ele>1872</ele>
        <time>2024-05-14T16:30:18.097Z</time>
      </trkpt>
      <trkpt lat="46.12573" lon="6.78727">
        <ele>1870</ele>
        <time>2024-05-14T16:30:26.726Z</time>
      </trkpt>
      <trkpt lat="46.12568" lon="6.78695">
        <ele>1865</ele>
        <time>2024-05-14T16:30:38.030Z</time>
      </trkpt>
      <trkpt lat="46.12558" lon="6.78672">
        <ele>1861</ele>
        <time>2024-05-14T16:30:47.387Z</time>
      </trkpt>
      <trkpt lat="46.12553" lon="6.78646">
        <ele>1857</ele>
        <time>2024-05-14T16:30:56.685Z</time>
      </trkpt>
      <trkpt lat="46.12566" lon="6.78623">
        <ele>1854</ele>
        <time>2024-05-14T16:31:06.912Z</time>
      </trkpt>
      <trkpt lat="46.12566" lon="6.78599">
        <ele>1852</ele>
        <time>2024-05-14T16:31:15.183Z</time>
      </trkpt>
      <trkpt lat="46.12561" lon="6.78573">
        <ele>1851</ele>
        <time>2024-05-14T16:31:24.481Z</time>
      </trkpt>
      <trkpt lat="46.12552" lon="6.78547">
        <ele>1849</ele>
        <time>2024-05-14T16:31:34.496Z</time>
      </trkpt>
      <trkpt lat="46.12549" lon="6.78519">
        <ele>1846</ele>
        <time>2024-05-14T16:31:44.259Z</time>
      </trkpt>
      <trkpt lat="46.12538" lon="6.78496">
        <ele>1845</ele>
        <time>2024-05-14T16:31:53.889Z</time>
      </trkpt>
      <trkpt lat="46.12534" lon="6.78462">
        <ele>1845</ele>
        <time>2024-05-14T16:32:07.471Z</time>
      </trkpt>
      <trkpt lat="46.12531" lon="6.78431">
        <ele>1844</ele>
        <time>2024-05-14T16:32:18.257Z</time>
      </trkpt>
      <trkpt lat="46.12529" lon="6.78397">
        <ele>1844</ele>
        <time>2024-05-14T16:32:31.696Z</time>
      </trkpt>
      <trkpt lat="46.12521" lon="6.78362">
        <ele>1844</ele>
        <time>2024-05-14T16:32:46.210Z</time>
      </trkpt>
      <trkpt lat="46.12512" lon="6.7834">
        <ele>1836</ele>
        <time>2024-05-14T16:32:55.014Z</time>
      </trkpt>
      <trkpt lat="46.1251" lon="6.78309">
        <ele>1826</ele>
        <time>2024-05-14T16:33:05.743Z</time>
      </trkpt>
      <trkpt lat="46.12505" lon="6.78282">
        <ele>1825</ele>
        <time>2024-05-14T16:33:15.374Z</time>
      </trkpt>
      <trkpt lat="46.12496" lon="6.7825">
        <ele>1824</ele>
        <time>2024-05-14T16:33:27.372Z</time>
      </trkpt>
      <trkpt lat="46.12494" lon="6.78211">
        <ele>1823</ele>
        <time>2024-05-14T16:33:41.155Z</time>
      </trkpt>
      <trkpt lat="46.12494" lon="6.78187">
        <ele>1821</ele>
        <time>2024-05-14T16:33:49.426Z</time>
      </trkpt>
      <trkpt lat="46.12482" lon="6.78163">
        <ele>1814</ele>
        <time>2024-05-14T16:33:59.624Z</time>
      </trkpt>
      <trkpt lat="46.12474" lon="6.78137">
        <ele>1806</ele>
        <time>2024-05-14T16:34:09.427Z</time>
      </trkpt>
      <trkpt lat="46.12457" lon="6.78118">
        <ele>1800</ele>
        <time>2024-05-14T16:34:20.119Z</time>
      </trkpt>
      <trkpt lat="46.12446" lon="6.78091">
        <ele>1797</ele>
        <time>2024-05-14T16:34:30.912Z</time>
      </trkpt>
      <trkpt lat="46.12448" lon="6.78062">
        <ele>1793</ele>
        <time>2024-05-14T16:34:40.955Z</time>
      </trkpt>
      <trkpt lat="46.12438" lon="6.78037">
        <ele>1788</ele>
        <time>2024-05-14T16:34:50.902Z</time>
      </trkpt>
      <trkpt lat="46.12425" lon="6.78018">
        <ele>1779</ele>
        <time>2024-05-14T16:35:00.102Z</time>
      </trkpt>
      <trkpt lat="46.12402" lon="6.78016">
        <ele>1772</ele>
        <time>2024-05-14T16:35:11.559Z</time>
      </trkpt>
      <trkpt lat="46.12388" lon="6.78003">
        <ele>1762</ele>
        <time>2024-05-14T16:35:19.837Z</time>
      </trkpt>
      <trkpt lat="46.12383" lon="6.77966">
        <ele>1762</ele>
        <time>2024-05-14T16:35:34.684Z</time>
      </trkpt>
      <trkpt lat="46.12383" lon="6.77937">
        <ele>1762</ele>
        <time>2024-05-14T16:35:46.105Z</time>
      </trkpt>
      <trkpt lat="46.12382" lon="6.77907">
        <ele>1758</ele>
        <time>2024-05-14T16:35:56.455Z</time>
      </trkpt>
      <trkpt lat="46.12366" lon="6.7786">
        <ele>1755</ele>
        <time>2024-05-14T16:36:14.501Z</time>
      </trkpt>
      <trkpt lat="46.1236" lon="6.77868">
        <ele>1752</ele>
        <time>2024-05-14T16:36:18.563Z</time>
      </trkpt>
      <trkpt lat="46.12347" lon="6.77897">
        <ele>1752</ele>
        <time>2024-05-14T16:36:32.165Z</time>
      </trkpt>
      <trkpt lat="46.1233" lon="6.77914">
        <ele>1746</ele>
        <time>2024-05-14T16:36:42.449Z</time>
      </trkpt>
      <trkpt lat="46.12315" lon="6.7793">
        <ele>1746</ele>
        <time>2024-05-14T16:36:53.049Z</time>
      </trkpt>
      <trkpt lat="46.12304" lon="6.77953">
        <ele>1746</ele>
        <time>2024-05-14T16:37:04.055Z</time>
      </trkpt>
      <trkpt lat="46.12284" lon="6.77982">
        <ele>1747</ele>
        <time>2024-05-14T16:37:22.059Z</time>
      </trkpt>
      <trkpt lat="46.12268" lon="6.77974">
        <ele>1751</ele>
        <time>2024-05-14T16:37:44.405Z</time>
      </trkpt>
      <trkpt lat="46.12252" lon="6.77964">
        <ele>1753</ele>
        <time>2024-05-14T16:37:58.888Z</time>
      </trkpt>
      <trkpt lat="46.12239" lon="6.77943">
        <ele>1752</ele>
        <time>2024-05-14T16:38:08.591Z</time>
      </trkpt>
      <trkpt lat="46.12231" lon="6.77918">
        <ele>1752</ele>
        <time>2024-05-14T16:38:19.436Z</time>
      </trkpt>
      <trkpt lat="46.12223" lon="6.77892">
        <ele>1750</ele>
        <time>2024-05-14T16:38:29.240Z</time>
      </trkpt>
      <trkpt lat="46.12212" lon="6.77868">
        <ele>1748</ele>
        <time>2024-05-14T16:38:39.156Z</time>
      </trkpt>
      <trkpt lat="46.12206" lon="6.77843">
        <ele>1745</ele>
        <time>2024-05-14T16:38:48.273Z</time>
      </trkpt>
      <trkpt lat="46.12198" lon="6.77818">
        <ele>1738</ele>
        <time>2024-05-14T16:38:57.763Z</time>
      </trkpt>
      <trkpt lat="46.12188" lon="6.77786">
        <ele>1731</ele>
        <time>2024-05-14T16:39:09.860Z</time>
      </trkpt>
      <trkpt lat="46.12175" lon="6.7776">
        <ele>1725</ele>
        <time>2024-05-14T16:39:20.908Z</time>
      </trkpt>
      <trkpt lat="46.12168" lon="6.77732">
        <ele>1722</ele>
        <time>2024-05-14T16:39:31.166Z</time>
      </trkpt>
      <trkpt lat="46.1216" lon="6.77707">
        <ele>1715</ele>
        <time>2024-05-14T16:39:40.656Z</time>
      </trkpt>
      <trkpt lat="46.12149" lon="6.77684">
        <ele>1712</ele>
        <time>2024-05-14T16:39:50.286Z</time>
      </trkpt>
      <trkpt lat="46.12132" lon="6.77655">
        <ele>1704</ele>
        <time>2024-05-14T16:40:03.375Z</time>
      </trkpt>
      <trkpt lat="46.12115" lon="6.77604">
        <ele>1691</ele>
        <time>2024-05-14T16:40:22.878Z</time>
      </trkpt>
      <trkpt lat="46.12103" lon="6.77559">
        <ele>1677</ele>
        <time>2024-05-14T16:40:39.495Z</time>
      </trkpt>
      <trkpt lat="46.12098" lon="6.77534">
        <ele>1671</ele>
        <time>2024-05-14T16:40:48.462Z</time>
      </trkpt>
      <trkpt lat="46.12095" lon="6.77493">
        <ele>1664</ele>
        <time>2024-05-14T16:41:02.670Z</time>
      </trkpt>
      <trkpt lat="46.12088" lon="6.77468">
        <ele>1659</ele>
        <time>2024-05-14T16:41:11.963Z</time>
      </trkpt>
      <trkpt lat="46.12081" lon="6.77414">
        <ele>1654</ele>
        <time>2024-05-14T16:41:30.896Z</time>
      </trkpt>
      <trkpt lat="46.12074" lon="6.77379">
        <ele>1649</ele>
        <time>2024-05-14T16:41:43.450Z</time>
      </trkpt>
      <trkpt lat="46.12063" lon="6.77352">
        <ele>1646</ele>
        <time>2024-05-14T16:41:54.243Z</time>
      </trkpt>
      <trkpt lat="46.1206" lon="6.77318">
        <ele>1636</ele>
        <time>2024-05-14T16:42:06.055Z</time>
      </trkpt>
      <trkpt lat="46.12046" lon="6.77297">
        <ele>1632</ele>
        <time>2024-05-14T16:42:16.097Z</time>
      </trkpt>
      <trkpt lat="46.12033" lon="6.77293">
        <ele>1628</ele>
        <time>2024-05-14T16:42:22.706Z</time>
      </trkpt>
      <trkpt lat="46.12024" lon="6.77258">
        <ele>1624</ele>
        <time>2024-05-14T16:42:35.572Z</time>
      </trkpt>
      <trkpt lat="46.12001" lon="6.77221">
        <ele>1616</ele>
        <time>2024-05-14T16:42:52.700Z</time>
      </trkpt>
      <trkpt lat="46.11983" lon="6.77204">
        <ele>1610</ele>
        <time>2024-05-14T16:43:03.397Z</time>
      </trkpt>
      <trkpt lat="46.11974" lon="6.77193">
        <ele>1605</ele>
        <time>2024-05-14T16:43:09.262Z</time>
      </trkpt>
      <trkpt lat="46.11978" lon="6.7718">
        <ele>1601</ele>
        <time>2024-05-14T16:43:14.163Z</time>
      </trkpt>
      <trkpt lat="46.11961" lon="6.77158">
        <ele>1594</ele>
        <time>2024-05-14T16:43:25.518Z</time>
      </trkpt>
      <trkpt lat="46.11946" lon="6.77146">
        <ele>1588</ele>
        <time>2024-05-14T16:43:34.046Z</time>
      </trkpt>
      <trkpt lat="46.11931" lon="6.77129">
        <ele>1585</ele>
        <time>2024-05-14T16:43:43.531Z</time>
      </trkpt>
      <trkpt lat="46.11934" lon="6.77102">
        <ele>1582</ele>
        <time>2024-05-14T16:43:52.955Z</time>
      </trkpt>
      <trkpt lat="46.11938" lon="6.77075">
        <ele>1579</ele>
        <time>2024-05-14T16:44:02.470Z</time>
      </trkpt>
      <trkpt lat="46.11935" lon="6.77044">
        <ele>1574</ele>
        <time>2024-05-14T16:44:13.258Z</time>
      </trkpt>
      <trkpt lat="46.11922" lon="6.77009">
        <ele>1565</ele>
        <time>2024-05-14T16:44:26.943Z</time>
      </trkpt>
      <trkpt lat="46.11924" lon="6.76964">
        <ele>1561</ele>
        <time>2024-05-14T16:44:42.484Z</time>
      </trkpt>
      <trkpt lat="46.11915" lon="6.76936">
        <ele>1555</ele>
        <time>2024-05-14T16:44:53.121Z</time>
      </trkpt>
      <trkpt lat="46.11897" lon="6.76926">
        <ele>1547</ele>
        <time>2024-05-14T16:45:02.711Z</time>
      </trkpt>
      <trkpt lat="46.11879" lon="6.76928">
        <ele>1540</ele>
        <time>2024-05-14T16:45:11.687Z</time>
      </trkpt>
      <trkpt lat="46.11857" lon="6.76919">
        <ele>1533</ele>
        <time>2024-05-14T16:45:23.057Z</time>
      </trkpt>
      <trkpt lat="46.1183" lon="6.76915">
        <ele>1530</ele>
        <time>2024-05-14T16:45:36.552Z</time>
      </trkpt>
      <trkpt lat="46.11815" lon="6.76892">
        <ele>1525</ele>
        <time>2024-05-14T16:45:47.436Z</time>
      </trkpt>
      <trkpt lat="46.11801" lon="6.76871">
        <ele>1522</ele>
        <time>2024-05-14T16:45:57.478Z</time>
      </trkpt>
      <trkpt lat="46.11785" lon="6.76854">
        <ele>1517</ele>
        <time>2024-05-14T16:46:07.358Z</time>
      </trkpt>
      <trkpt lat="46.11774" lon="6.76836">
        <ele>1512</ele>
        <time>2024-05-14T16:46:15.628Z</time>
      </trkpt>
      <trkpt lat="46.11775" lon="6.76823">
        <ele>1509</ele>
        <time>2024-05-14T16:46:20.136Z</time>
      </trkpt>
      <trkpt lat="46.1176" lon="6.76805">
        <ele>1505</ele>
        <time>2024-05-14T16:46:29.837Z</time>
      </trkpt>
      <trkpt lat="46.11753" lon="6.76767">
        <ele>1497</ele>
        <time>2024-05-14T16:46:43.389Z</time>
      </trkpt>
      <trkpt lat="46.11754" lon="6.7674">
        <ele>1493</ele>
        <time>2024-05-14T16:46:52.708Z</time>
      </trkpt>
      <trkpt lat="46.11754" lon="6.76708">
        <ele>1488</ele>
        <time>2024-05-14T16:47:03.737Z</time>
      </trkpt>
      <trkpt lat="46.11757" lon="6.76673">
        <ele>1483</ele>
        <time>2024-05-14T16:47:15.891Z</time>
      </trkpt>
      <trkpt lat="46.1175" lon="6.76647">
        <ele>1479</ele>
        <time>2024-05-14T16:47:25.505Z</time>
      </trkpt>
      <trkpt lat="46.11759" lon="6.76614">
        <ele>1475</ele>
        <time>2024-05-14T16:47:37.727Z</time>
      </trkpt>
      <trkpt lat="46.11759" lon="6.76589">
        <ele>1472</ele>
        <time>2024-05-14T16:47:46.343Z</time>
      </trkpt>
      <trkpt lat="46.11747" lon="6.76548">
        <ele>1468</ele>
        <time>2024-05-14T16:48:01.682Z</time>
      </trkpt>
      <trkpt lat="46.11736" lon="6.76516">
        <ele>1462</ele>
        <time>2024-05-14T16:48:13.992Z</time>
      </trkpt>
      <trkpt lat="46.11731" lon="6.76492">
        <ele>1461</ele>
        <time>2024-05-14T16:48:22.630Z</time>
      </trkpt>
      <trkpt lat="46.11717" lon="6.76472">
        <ele>1455</ele>
        <time>2024-05-14T16:48:32.426Z</time>
      </trkpt>
      <trkpt lat="46.11717" lon="6.76445">
        <ele>1454</ele>
        <time>2024-05-14T16:48:41.732Z</time>
      </trkpt>
      <trkpt lat="46.11706" lon="6.76406">
        <ele>1448</ele>
        <time>2024-05-14T16:48:56.243Z</time>
      </trkpt>
      <trkpt lat="46.11696" lon="6.76373">
        <ele>1442</ele>
        <time>2024-05-14T16:49:08.656Z</time>
      </trkpt>
      <trkpt lat="46.11683" lon="6.76331">
        <ele>1436</ele>
        <time>2024-05-14T16:49:24.510Z</time>
      </trkpt>
      <trkpt lat="46.11674" lon="6.76296">
        <ele>1428</ele>
        <time>2024-05-14T16:49:37.376Z</time>
      </trkpt>
      <trkpt lat="46.11657" lon="6.76292">
        <ele>1423</ele>
        <time>2024-05-14T16:49:45.940Z</time>
      </trkpt>
      <trkpt lat="46.11647" lon="6.76316">
        <ele>1421</ele>
        <time>2024-05-14T16:49:55.591Z</time>
      </trkpt>
      <trkpt lat="46.11634" lon="6.7634">
        <ele>1419</ele>
        <time>2024-05-14T16:50:06.089Z</time>
      </trkpt>
      <trkpt lat="46.11623" lon="6.76354">
        <ele>1418</ele>
        <time>2024-05-14T16:50:13.383Z</time>
      </trkpt>
      <trkpt lat="46.11611" lon="6.76329">
        <ele>1412</ele>
        <time>2024-05-14T16:50:23.863Z</time>
      </trkpt>
      <trkpt lat="46.11603" lon="6.76305">
        <ele>1407</ele>
        <time>2024-05-14T16:50:33.042Z</time>
      </trkpt>
      <trkpt lat="46.11589" lon="6.76287">
        <ele>1400</ele>
        <time>2024-05-14T16:50:42.366Z</time>
      </trkpt>
      <trkpt lat="46.11589" lon="6.76261">
        <ele>1396</ele>
        <time>2024-05-14T16:50:51.327Z</time>
      </trkpt>
      <trkpt lat="46.11583" lon="6.76235">
        <ele>1390</ele>
        <time>2024-05-14T16:51:00.772Z</time>
      </trkpt>
      <trkpt lat="46.11579" lon="6.76212">
        <ele>1382</ele>
        <time>2024-05-14T16:51:08.945Z</time>
      </trkpt>
      <trkpt lat="46.11573" lon="6.76186">
        <ele>1376</ele>
        <time>2024-05-14T16:51:18.390Z</time>
      </trkpt>
      <trkpt lat="46.11562" lon="6.76164">
        <ele>1370</ele>
        <time>2024-05-14T16:51:27.739Z</time>
      </trkpt>
      <trkpt lat="46.11547" lon="6.76146">
        <ele>1363</ele>
        <time>2024-05-14T16:51:37.440Z</time>
      </trkpt>
      <trkpt lat="46.11542" lon="6.76118">
        <ele>1359</ele>
        <time>2024-05-14T16:51:47.406Z</time>
      </trkpt>
      <trkpt lat="46.11541" lon="6.76083">
        <ele>1355</ele>
        <time>2024-05-14T16:51:59.480Z</time>
      </trkpt>
      <trkpt lat="46.11533" lon="6.76018">
        <ele>1344</ele>
        <time>2024-05-14T16:52:22.233Z</time>
      </trkpt>
      <trkpt lat="46.11523" lon="6.75977">
        <ele>1335</ele>
        <time>2024-05-14T16:52:37.214Z</time>
      </trkpt>
      <trkpt lat="46.1151" lon="6.75933">
        <ele>1324</ele>
        <time>2024-05-14T16:52:53.699Z</time>
      </trkpt>
      <trkpt lat="46.11501" lon="6.75894">
        <ele>1316</ele>
        <time>2024-05-14T16:53:07.867Z</time>
      </trkpt>
      <trkpt lat="46.11497" lon="6.75856">
        <ele>1308</ele>
        <time>2024-05-14T16:53:21.114Z</time>
      </trkpt>
      <trkpt lat="46.11487" lon="6.75825">
        <ele>1300</ele>
        <time>2024-05-14T16:53:32.899Z</time>
      </trkpt>
      <trkpt lat="46.11474" lon="6.7579">
        <ele>1292</ele>
        <time>2024-05-14T16:53:46.585Z</time>
      </trkpt>
      <trkpt lat="46.11469" lon="6.75764">
        <ele>1283</ele>
        <time>2024-05-14T16:53:55.885Z</time>
      </trkpt>
      <trkpt lat="46.11468" lon="6.75731">
        <ele>1274</ele>
        <time>2024-05-14T16:54:07.270Z</time>
      </trkpt>
      <trkpt lat="46.11475" lon="6.75702">
        <ele>1264</ele>
        <time>2024-05-14T16:54:17.854Z</time>
      </trkpt>
      <trkpt lat="46.11472" lon="6.75668">
        <ele>1251</ele>
        <time>2024-05-14T16:54:29.668Z</time>
      </trkpt>
      <trkpt lat="46.11456" lon="6.75642">
        <ele>1246</ele>
        <time>2024-05-14T16:54:41.651Z</time>
      </trkpt>
      <trkpt lat="46.11425" lon="6.75611">
        <ele>1238</ele>
        <time>2024-05-14T16:55:00.405Z</time>
      </trkpt>
      <trkpt lat="46.11397" lon="6.75605">
        <ele>1236</ele>
        <time>2024-05-14T16:55:14.480Z</time>
      </trkpt>
      <trkpt lat="46.11369" lon="6.75586">
        <ele>1235</ele>
        <time>2024-05-14T16:55:30.429Z</time>
      </trkpt>
      <trkpt lat="46.11349" lon="6.75572">
        <ele>1234</ele>
        <time>2024-05-14T16:55:41.482Z</time>
      </trkpt>
      <trkpt lat="46.11326" lon="6.75553">
        <ele>1233</ele>
        <time>2024-05-14T16:55:54.928Z</time>
      </trkpt>
      <trkpt lat="46.11307" lon="6.75529">
        <ele>1228</ele>
        <time>2024-05-14T16:56:07.484Z</time>
      </trkpt>
      <trkpt lat="46.11286" lon="6.7551">
        <ele>1226</ele>
        <time>2024-05-14T16:56:19.810Z</time>
      </trkpt>
      <trkpt lat="46.11268" lon="6.75485">
        <ele>1228</ele>
        <time>2024-05-14T16:56:38.208Z</time>
      </trkpt>
      <trkpt lat="46.11244" lon="6.75466">
        <ele>1228</ele>
        <time>2024-05-14T16:56:53.765Z</time>
      </trkpt>
      <trkpt lat="46.11228" lon="6.75435">
        <ele>1224</ele>
        <time>2024-05-14T16:57:07.086Z</time>
      </trkpt>
      <trkpt lat="46.11217" lon="6.75395">
        <ele>1221</ele>
        <time>2024-05-14T16:57:21.919Z</time>
      </trkpt>
      <trkpt lat="46.11208" lon="6.75349">
        <ele>1207</ele>
        <time>2024-05-14T16:57:38.394Z</time>
      </trkpt>
      <trkpt lat="46.11229" lon="6.75345">
        <ele>1199</ele>
        <time>2024-05-14T16:57:48.926Z</time>
      </trkpt>
      <trkpt lat="46.1125" lon="6.75359">
        <ele>1186</ele>
        <time>2024-05-14T16:58:00.428Z</time>
      </trkpt>
      <trkpt lat="46.11283" lon="6.75364">
        <ele>1169</ele>
        <time>2024-05-14T16:58:16.926Z</time>
      </trkpt>
      <trkpt lat="46.11289" lon="6.75347">
        <ele>1166</ele>
        <time>2024-05-14T16:58:23.502Z</time>
      </trkpt>
      <trkpt lat="46.1128" lon="6.75318">
        <ele>1163</ele>
        <time>2024-05-14T16:58:34.453Z</time>
      </trkpt>
      <trkpt lat="46.11273" lon="6.75292">
        <ele>1161</ele>
        <time>2024-05-14T16:58:44.067Z</time>
      </trkpt>
      <trkpt lat="46.11262" lon="6.75262">
        <ele>1156</ele>
        <time>2024-05-14T16:58:55.765Z</time>
      </trkpt>
      <trkpt lat="46.1125" lon="6.75228">
        <ele>1146</ele>
        <time>2024-05-14T16:59:08.916Z</time>
      </trkpt>
      <trkpt lat="46.11238" lon="6.75203">
        <ele>1144</ele>
        <time>2024-05-14T16:59:19.397Z</time>
      </trkpt>
      <trkpt lat="46.11222" lon="6.75176">
        <ele>1136</ele>
        <time>2024-05-14T16:59:31.640Z</time>
      </trkpt>
      <trkpt lat="46.11203" lon="6.75145">
        <ele>1132</ele>
        <time>2024-05-14T16:59:45.903Z</time>
      </trkpt>
      <trkpt lat="46.11191" lon="6.75112">
        <ele>1126</ele>
        <time>2024-05-14T16:59:58.747Z</time>
      </trkpt>
      <trkpt lat="46.11174" lon="6.75092">
        <ele>1125</ele>
        <time>2024-05-14T17:00:09.655Z</time>
      </trkpt>
      <trkpt lat="46.1115" lon="6.75066">
        <ele>1123</ele>
        <time>2024-05-14T17:00:24.578Z</time>
      </trkpt>
      <trkpt lat="46.1112" lon="6.75046">
        <ele>1123</ele>
        <time>2024-05-14T17:00:43.358Z</time>
      </trkpt>
      <trkpt lat="46.11099" lon="6.75031">
        <ele>1134</ele>
        <time>2024-05-14T17:01:53.266Z</time>
      </trkpt>
      <trkpt lat="46.11076" lon="6.75026">
        <ele>1139</ele>
        <time>2024-05-14T17:02:21.452Z</time>
      </trkpt>
      <trkpt lat="46.11045" lon="6.75004">
        <ele>1145</ele>
        <time>2024-05-14T17:02:57.103Z</time>
      </trkpt>
      <trkpt lat="46.11013" lon="6.74973">
        <ele>1146</ele>
        <time>2024-05-14T17:03:20.859Z</time>
      </trkpt>
      <trkpt lat="46.10971" lon="6.74949">
        <ele>1148</ele>
        <time>2024-05-14T17:03:50.390Z</time>
      </trkpt>
      <trkpt lat="46.10941" lon="6.74931">
        <ele>1153</ele>
        <time>2024-05-14T17:04:21.512Z</time>
      </trkpt>
      <trkpt lat="46.10919" lon="6.74928">
        <ele>1155</ele>
        <time>2024-05-14T17:04:38.377Z</time>
      </trkpt>
      <trkpt lat="46.10897" lon="6.74924">
        <ele>1154</ele>
        <time>2024-05-14T17:04:49.402Z</time>
      </trkpt>
      <trkpt lat="46.10872" lon="6.74909">
        <ele>1154</ele>
        <time>2024-05-14T17:05:04.788Z</time>
      </trkpt>
      <trkpt lat="46.10841" lon="6.74891">
        <ele>1151</ele>
        <time>2024-05-14T17:05:21.404Z</time>
      </trkpt>
      <trkpt lat="46.10817" lon="6.74877">
        <ele>1147</ele>
        <time>2024-05-14T17:05:34.275Z</time>
      </trkpt>
      <trkpt lat="46.10781" lon="6.74876">
        <ele>1147</ele>
        <time>2024-05-14T17:05:54.736Z</time>
      </trkpt>
      <trkpt lat="46.10747" lon="6.74875">
        <ele>1146</ele>
        <time>2024-05-14T17:06:12.416Z</time>
      </trkpt>
      <trkpt lat="46.10717" lon="6.74857">
        <ele>1133</ele>
        <time>2024-05-14T17:06:28.571Z</time>
      </trkpt>
      <trkpt lat="46.10701" lon="6.74839">
        <ele>1126</ele>
        <time>2024-05-14T17:06:38.660Z</time>
      </trkpt>
      <trkpt lat="46.10672" lon="6.74813">
        <ele>1126</ele>
        <time>2024-05-14T17:06:58.063Z</time>
      </trkpt>
      <trkpt lat="46.1065" lon="6.74796">
        <ele>1118</ele>
        <time>2024-05-14T17:07:10.473Z</time>
      </trkpt>
      <trkpt lat="46.10624" lon="6.74776">
        <ele>1108</ele>
        <time>2024-05-14T17:07:25.124Z</time>
      </trkpt>
      <trkpt lat="46.10596" lon="6.74749">
        <ele>1090</ele>
        <time>2024-05-14T17:07:41.870Z</time>
      </trkpt>
      <trkpt lat="46.10607" lon="6.74727">
        <ele>1083</ele>
        <time>2024-05-14T17:07:51.221Z</time>
      </trkpt>
      <trkpt lat="46.10625" lon="6.74718">
        <ele>1079</ele>
        <time>2024-05-14T17:08:00.693Z</time>
      </trkpt>
      <trkpt lat="46.10625" lon="6.7469">
        <ele>1069</ele>
        <time>2024-05-14T17:08:10.345Z</time>
      </trkpt>
      <trkpt lat="46.10629" lon="6.74676">
        <ele>1059</ele>
        <time>2024-05-14T17:08:15.565Z</time>
      </trkpt>
      <trkpt lat="46.10627" lon="6.74645">
        <ele>1048</ele>
        <time>2024-05-14T17:08:26.298Z</time>
      </trkpt>
      <trkpt lat="46.1062" lon="6.74615">
        <ele>1039</ele>
        <time>2024-05-14T17:08:37.209Z</time>
      </trkpt>
      <trkpt lat="46.10614" lon="6.74589">
        <ele>1031</ele>
        <time>2024-05-14T17:08:46.656Z</time>
      </trkpt>
      <trkpt lat="46.10622" lon="6.74568">
        <ele>1029</ele>
        <time>2024-05-14T17:08:54.916Z</time>
      </trkpt>
      <trkpt lat="46.1064" lon="6.74577">
        <ele>1029</ele>
        <time>2024-05-14T17:09:05.741Z</time>
      </trkpt>
      <trkpt lat="46.10659" lon="6.74585">
        <ele>1029</ele>
        <time>2024-05-14T17:09:16.988Z</time>
      </trkpt>
      <trkpt lat="46.10686" lon="6.74589">
        <ele>1029</ele>
        <time>2024-05-14T17:09:32.411Z</time>
      </trkpt>
      <trkpt lat="46.10704" lon="6.74581">
        <ele>1028</ele>
        <time>2024-05-14T17:09:41.776Z</time>
      </trkpt>
      <trkpt lat="46.10719" lon="6.74557">
        <ele>1021</ele>
        <time>2024-05-14T17:09:52.915Z</time>
      </trkpt>
      <trkpt lat="46.1073" lon="6.74526">
        <ele>1014</ele>
        <time>2024-05-14T17:10:04.919Z</time>
      </trkpt>
      <trkpt lat="46.10735" lon="6.74499">
        <ele>1008</ele>
        <time>2024-05-14T17:10:14.553Z</time>
      </trkpt>
      <trkpt lat="46.10726" lon="6.7447">
        <ele>1002</ele>
        <time>2024-05-14T17:10:25.506Z</time>
      </trkpt>
      <trkpt lat="46.10732" lon="6.74432">
        <ele>994</ele>
        <time>2024-05-14T17:10:38.940Z</time>
      </trkpt>
      <trkpt lat="46.10717" lon="6.74417">
        <ele>990</ele>
        <time>2024-05-14T17:10:48.016Z</time>
      </trkpt>
      <trkpt lat="46.10696" lon="6.74414">
        <ele>987</ele>
        <time>2024-05-14T17:10:58.508Z</time>
      </trkpt>
      <trkpt lat="46.10674" lon="6.74405">
        <ele>983</ele>
        <time>2024-05-14T17:11:09.878Z</time>
      </trkpt>
      <trkpt lat="46.10649" lon="6.74398">
        <ele>978</ele>
        <time>2024-05-14T17:11:22.540Z</time>
      </trkpt>
      <trkpt lat="46.10618" lon="6.7439">
        <ele>973</ele>
        <time>2024-05-14T17:11:38.198Z</time>
      </trkpt>
      <trkpt lat="46.106" lon="6.74379">
        <ele>969</ele>
        <time>2024-05-14T17:11:47.918Z</time>
      </trkpt>
      <trkpt lat="46.10539" lon="6.7437">
        <ele>969</ele>
        <time>2024-05-14T17:12:22.761Z</time>
      </trkpt>
      <trkpt lat="46.10499" lon="6.7439">
        <ele>968</ele>
        <time>2024-05-14T17:12:45.154Z</time>
      </trkpt>
      <trkpt lat="46.10478" lon="6.74382">
        <ele>968</ele>
        <time>2024-05-14T17:12:57.497Z</time>
      </trkpt>
      <trkpt lat="46.10453" lon="6.74381">
        <ele>963</ele>
        <time>2024-05-14T17:13:09.931Z</time>
      </trkpt>
      <trkpt lat="46.1041" lon="6.74372">
        <ele>947</ele>
        <time>2024-05-14T17:13:31.535Z</time>
      </trkpt>
      <trkpt lat="46.10387" lon="6.74337">
        <ele>934</ele>
        <time>2024-05-14T17:13:48.159Z</time>
      </trkpt>
      <trkpt lat="46.10393" lon="6.74312">
        <ele>925</ele>
        <time>2024-05-14T17:13:57.280Z</time>
      </trkpt>
      <trkpt lat="46.10379" lon="6.74298">
        <ele>912</ele>
        <time>2024-05-14T17:14:05.750Z</time>
      </trkpt>
      <trkpt lat="46.10356" lon="6.74292">
        <ele>912</ele>
        <time>2024-05-14T17:14:19.031Z</time>
      </trkpt>
      <trkpt lat="46.10339" lon="6.74297">
        <ele>904</ele>
        <time>2024-05-14T17:14:27.658Z</time>
      </trkpt>
      <trkpt lat="46.10318" lon="6.74285">
        <ele>901</ele>
        <time>2024-05-14T17:14:38.889Z</time>
      </trkpt>
      <trkpt lat="46.10298" lon="6.74275">
        <ele>902</ele>
        <time>2024-05-14T17:14:52.861Z</time>
      </trkpt>
      <trkpt lat="46.10267" lon="6.74278">
        <ele>901</ele>
        <time>2024-05-14T17:15:08.882Z</time>
      </trkpt>
      <trkpt lat="46.10234" lon="6.74277">
        <ele>901</ele>
        <time>2024-05-14T17:15:27.637Z</time>
      </trkpt>
      <trkpt lat="46.10195" lon="6.74263">
        <ele>898</ele>
        <time>2024-05-14T17:15:47.620Z</time>
      </trkpt>
      <trkpt lat="46.10163" lon="6.7425">
        <ele>898</ele>
        <time>2024-05-14T17:16:06.511Z</time>
      </trkpt>
      <trkpt lat="46.10138" lon="6.74241">
        <ele>892</ele>
        <time>2024-05-14T17:16:19.323Z</time>
      </trkpt>
      <trkpt lat="46.10143" lon="6.74279">
        <ele>887</ele>
        <time>2024-05-14T17:16:32.657Z</time>
      </trkpt>
      <trkpt lat="46.10139" lon="6.74303">
        <ele>877</ele>
        <time>2024-05-14T17:16:41.167Z</time>
      </trkpt>
      <trkpt lat="46.10117" lon="6.74319">
        <ele>869</ele>
        <time>2024-05-14T17:16:53.418Z</time>
      </trkpt>
      <trkpt lat="46.1007" lon="6.74311">
        <ele>861</ele>
        <time>2024-05-14T17:17:16.949Z</time>
      </trkpt>
      <trkpt lat="46.10039" lon="6.74301">
        <ele>856</ele>
        <time>2024-05-14T17:17:32.743Z</time>
      </trkpt>
      <trkpt lat="46.09997" lon="6.74282">
        <ele>856</ele>
        <time>2024-05-14T17:17:57.755Z</time>
      </trkpt>
      <trkpt lat="46.09969" lon="6.74268">
        <ele>856</ele>
        <time>2024-05-14T17:18:14.595Z</time>
      </trkpt>
      <trkpt lat="46.09946" lon="6.74255">
        <ele>854</ele>
        <time>2024-05-14T17:18:26.878Z</time>
      </trkpt>
      <trkpt lat="46.09919" lon="6.7424">
        <ele>851</ele>
        <time>2024-05-14T17:18:41.264Z</time>
      </trkpt>
      <trkpt lat="46.09871" lon="6.7425">
        <ele>845</ele>
        <time>2024-05-14T17:19:05.378Z</time>
      </trkpt>
      <trkpt lat="46.09849" lon="6.7425">
        <ele>842</ele>
        <time>2024-05-14T17:19:16.316Z</time>
      </trkpt>
      <trkpt lat="46.09829" lon="6.74233">
        <ele>841</ele>
        <time>2024-05-14T17:19:27.910Z</time>
      </trkpt>
      <trkpt lat="46.09813" lon="6.74207">
        <ele>841</ele>
        <time>2024-05-14T17:19:41.607Z</time>
      </trkpt>
      <trkpt lat="46.09778" lon="6.74215">
        <ele>836</ele>
        <time>2024-05-14T17:19:59.227Z</time>
      </trkpt>
      <trkpt lat="46.09755" lon="6.74218">
        <ele>833</ele>
        <time>2024-05-14T17:20:10.709Z</time>
      </trkpt>
      <trkpt lat="46.09742" lon="6.74251">
        <ele>831</ele>
        <time>2024-05-14T17:20:23.795Z</time>
      </trkpt>
      <trkpt lat="46.09732" lon="6.74274">
        <ele>829</ele>
        <time>2024-05-14T17:20:33.154Z</time>
      </trkpt>
      <trkpt lat="46.09691" lon="6.74272">
        <ele>825</ele>
        <time>2024-05-14T17:20:53.551Z</time>
      </trkpt>
      <trkpt lat="46.09666" lon="6.74281">
        <ele>821</ele>
        <time>2024-05-14T17:21:06.363Z</time>
      </trkpt>
      <trkpt lat="46.09649" lon="6.74264">
        <ele>819</ele>
        <time>2024-05-14T17:21:16.649Z</time>
      </trkpt>
      <trkpt lat="46.0964" lon="6.74215">
        <ele>818</ele>
        <time>2024-05-14T17:21:34.976Z</time>
      </trkpt>
      <trkpt lat="46.09612" lon="6.74174">
        <ele>816</ele>
        <time>2024-05-14T17:21:54.816Z</time>
      </trkpt>
      <trkpt lat="46.09583" lon="6.74161">
        <ele>814</ele>
        <time>2024-05-14T17:22:09.916Z</time>
      </trkpt>
      <trkpt lat="46.09562" lon="6.74171">
        <ele>813</ele>
        <time>2024-05-14T17:22:20.912Z</time>
      </trkpt>
      <trkpt lat="46.09526" lon="6.74154">
        <ele>809</ele>
        <time>2024-05-14T17:22:39.747Z</time>
      </trkpt>
      <trkpt lat="46.09498" lon="6.74143">
        <ele>805</ele>
        <time>2024-05-14T17:22:54.176Z</time>
      </trkpt>
      <trkpt lat="46.09471" lon="6.74123">
        <ele>805</ele>
        <time>2024-05-14T17:23:11.424Z</time>
      </trkpt>
      <trkpt lat="46.09457" lon="6.74154">
        <ele>802</ele>
        <time>2024-05-14T17:23:24.179Z</time>
      </trkpt>
      <trkpt lat="46.09432" lon="6.7415">
        <ele>801</ele>
        <time>2024-05-14T17:23:36.863Z</time>
      </trkpt>
      <trkpt lat="46.09399" lon="6.74142">
        <ele>798</ele>
        <time>2024-05-14T17:23:53.502Z</time>
      </trkpt>
      <trkpt lat="46.09369" lon="6.74129">
        <ele>796</ele>
        <time>2024-05-14T17:24:09.077Z</time>
      </trkpt>
      <trkpt lat="46.09335" lon="6.74111">
        <ele>792</ele>
        <time>2024-05-14T17:24:27.085Z</time>
      </trkpt>
      <trkpt lat="46.09309" lon="6.74102">
        <ele>787</ele>
        <time>2024-05-14T17:24:40.380Z</time>
      </trkpt>
      <trkpt lat="46.09275" lon="6.74097">
        <ele>782</ele>
        <time>2024-05-14T17:24:57.372Z</time>
      </trkpt>
      <trkpt lat="46.09256" lon="6.74077">
        <ele>780</ele>
        <time>2024-05-14T17:25:09.068Z</time>
      </trkpt>
      <trkpt lat="46.09234" lon="6.74055">
        <ele>777</ele>
        <time>2024-05-14T17:25:22.380Z</time>
      </trkpt>
      <trkpt lat="46.09201" lon="6.74009">
        <ele>774</ele>
        <time>2024-05-14T17:25:45.201Z</time>
      </trkpt>
      <trkpt lat="46.09158" lon="6.73971">
        <ele>770</ele>
        <time>2024-05-14T17:26:10.277Z</time>
      </trkpt>
      <trkpt lat="46.09135" lon="6.73967">
        <ele>768</ele>
        <time>2024-05-14T17:26:21.795Z</time>
      </trkpt>
      <trkpt lat="46.09108" lon="6.7397">
        <ele>766</ele>
        <time>2024-05-14T17:26:35.260Z</time>
      </trkpt>
      <trkpt lat="46.09095" lon="6.73953">
        <ele>765</ele>
        <time>2024-05-14T17:26:43.985Z</time>
      </trkpt>
      <trkpt lat="46.09077" lon="6.73942">
        <ele>764</ele>
        <time>2024-05-14T17:26:53.706Z</time>
      </trkpt>
      <trkpt lat="46.0906" lon="6.73925">
        <ele>764</ele>
        <time>2024-05-14T17:27:05.461Z</time>
      </trkpt>
      <trkpt lat="46.09042" lon="6.73897">
        <ele>763</ele>
        <time>2024-05-14T17:27:18.892Z</time>
      </trkpt>
      <trkpt lat="46.09026" lon="6.73872">
        <ele>762</ele>
        <time>2024-05-14T17:27:30.697Z</time>
      </trkpt>
      <trkpt lat="46.09022" lon="6.73853">
        <ele>762</ele>
        <time>2024-05-14T17:27:38.522Z</time>
      </trkpt>
      <trkpt lat="46.09032" lon="6.73822">
        <ele>764</ele>
        <time>2024-05-14T17:27:56.240Z</time>
      </trkpt>
      <trkpt lat="46.09026" lon="6.73791">
        <ele>767</ele>
        <time>2024-05-14T17:28:16.141Z</time>
      </trkpt>
      <trkpt lat="46.09009" lon="6.73763">
        <ele>770</ele>
        <time>2024-05-14T17:28:37.695Z</time>
      </trkpt>
      <trkpt lat="46.08979" lon="6.73726">
        <ele>771</ele>
        <time>2024-05-14T17:29:01.977Z</time>
      </trkpt>
      <trkpt lat="46.08953" lon="6.737">
        <ele>772</ele>
        <time>2024-05-14T17:29:21.832Z</time>
      </trkpt>
      <trkpt lat="46.08933" lon="6.73668">
        <ele>774</ele>
        <time>2024-05-14T17:29:42.879Z</time>
      </trkpt>
      <trkpt lat="46.08938" lon="6.73631">
        <ele>779</ele>
        <time>2024-05-14T17:30:11.743Z</time>
      </trkpt>
      <trkpt lat="46.0894" lon="6.73604">
        <ele>786</ele>
        <time>2024-05-14T17:30:55.177Z</time>
      </trkpt>
      <trkpt lat="46.08935" lon="6.73561">
        <ele>802</ele>
        <time>2024-05-14T17:32:25.385Z</time>
      </trkpt>
      <trkpt lat="46.08923" lon="6.73534">
        <ele>809</ele>
        <time>2024-05-14T17:33:05.997Z</time>
      </trkpt>
      <trkpt lat="46.08909" lon="6.73506">
        <ele>812</ele>
        <time>2024-05-14T17:33:26.651Z</time>
      </trkpt>
      <trkpt lat="46.0889" lon="6.73467">
        <ele>818</ele>
        <time>2024-05-14T17:34:01.799Z</time>
      </trkpt>
      <trkpt lat="46.08871" lon="6.73447">
        <ele>817</ele>
        <time>2024-05-14T17:34:13.567Z</time>
      </trkpt>
      <trkpt lat="46.08848" lon="6.73421">
        <ele>817</ele>
        <time>2024-05-14T17:34:30.174Z</time>
      </trkpt>
      <trkpt lat="46.08828" lon="6.73393">
        <ele>818</ele>
        <time>2024-05-14T17:34:47.908Z</time>
      </trkpt>
      <trkpt lat="46.08794" lon="6.73352">
        <ele>820</ele>
        <time>2024-05-14T17:35:16.963Z</time>
      </trkpt>
      <trkpt lat="46.08771" lon="6.73324">
        <ele>820</ele>
        <time>2024-05-14T17:35:34.068Z</time>
      </trkpt>
      <trkpt lat="46.08753" lon="6.73299">
        <ele>819</ele>
        <time>2024-05-14T17:35:46.661Z</time>
      </trkpt>
      <trkpt lat="46.08737" lon="6.73267">
        <ele>819</ele>
        <time>2024-05-14T17:36:02.208Z</time>
      </trkpt>
      <trkpt lat="46.08726" lon="6.73231">
        <ele>820</ele>
        <time>2024-05-14T17:36:19.609Z</time>
      </trkpt>
      <trkpt lat="46.08721" lon="6.73199">
        <ele>821</ele>
        <time>2024-05-14T17:36:34.466Z</time>
      </trkpt>
      <trkpt lat="46.08719" lon="6.7317">
        <ele>822</ele>
        <time>2024-05-14T17:36:47.905Z</time>
      </trkpt>
      <trkpt lat="46.08719" lon="6.73139">
        <ele>822</ele>
        <time>2024-05-14T17:37:00.122Z</time>
      </trkpt>
      <trkpt lat="46.08725" lon="6.73107">
        <ele>825</ele>
        <time>2024-05-14T17:37:20.331Z</time>
      </trkpt>
      <trkpt lat="46.08733" lon="6.73073">
        <ele>823</ele>
        <time>2024-05-14T17:37:32.712Z</time>
      </trkpt>
      <trkpt lat="46.08735" lon="6.73032">
        <ele>821</ele>
        <time>2024-05-14T17:37:46.885Z</time>
      </trkpt>
      <trkpt lat="46.08727" lon="6.73001">
        <ele>810</ele>
        <time>2024-05-14T17:37:58.292Z</time>
      </trkpt>
      <trkpt lat="46.08733" lon="6.72964">
        <ele>806</ele>
        <time>2024-05-14T17:38:11.395Z</time>
      </trkpt>
      <trkpt lat="46.08723" lon="6.72953">
        <ele>800</ele>
        <time>2024-05-14T17:38:17.649Z</time>
      </trkpt>
      <trkpt lat="46.08703" lon="6.72972">
        <ele>795</ele>
        <time>2024-05-14T17:38:29.557Z</time>
      </trkpt>
      <trkpt lat="46.08686" lon="6.7295">
        <ele>786</ele>
        <time>2024-05-14T17:38:40.915Z</time>
      </trkpt>
      <trkpt lat="46.08685" lon="6.72907">
        <ele>786</ele>
        <time>2024-05-14T17:38:57.871Z</time>
      </trkpt>
      <trkpt lat="46.08684" lon="6.7287">
        <ele>786</ele>
        <time>2024-05-14T17:39:12.464Z</time>
      </trkpt>
      <trkpt lat="46.08686" lon="6.72834">
        <ele>786</ele>
        <time>2024-05-14T17:39:26.698Z</time>
      </trkpt>
      <trkpt lat="46.08689" lon="6.72804">
        <ele>786</ele>
        <time>2024-05-14T17:39:38.643Z</time>
      </trkpt>
      <trkpt lat="46.08694" lon="6.72777">
        <ele>786</ele>
        <time>2024-05-14T17:39:49.657Z</time>
      </trkpt>
      <trkpt lat="46.0869" lon="6.72743">
        <ele>786</ele>
        <time>2024-05-14T17:40:03.248Z</time>
      </trkpt>
      <trkpt lat="46.08693" lon="6.72715">
        <ele>788</ele>
        <time>2024-05-14T17:40:18.844Z</time>
      </trkpt>
      <trkpt lat="46.08695" lon="6.72686">
        <ele>788</ele>
        <time>2024-05-14T17:40:30.329Z</time>
      </trkpt>
      <trkpt lat="46.08678" lon="6.72667">
        <ele>784</ele>
        <time>2024-05-14T17:40:41.024Z</time>
      </trkpt>
      <trkpt lat="46.08663" lon="6.72702">
        <ele>783</ele>
        <time>2024-05-14T17:40:55.614Z</time>
      </trkpt>
      <trkpt lat="46.08652" lon="6.72741">
        <ele>781</ele>
        <time>2024-05-14T17:41:10.133Z</time>
      </trkpt>
      <trkpt lat="46.0864" lon="6.72738">
        <ele>779</ele>
        <time>2024-05-14T17:41:16.188Z</time>
      </trkpt>
      <trkpt lat="46.08625" lon="6.72712">
        <ele>776</ele>
        <time>2024-05-14T17:41:27.851Z</time>
      </trkpt>
      <trkpt lat="46.08607" lon="6.7271">
        <ele>772</ele>
        <time>2024-05-14T17:41:36.827Z</time>
      </trkpt>
      <trkpt lat="46.08601" lon="6.72741">
        <ele>771</ele>
        <time>2024-05-14T17:41:47.926Z</time>
      </trkpt>
      <trkpt lat="46.08586" lon="6.72751">
        <ele>765</ele>
        <time>2024-05-14T17:41:56.142Z</time>
      </trkpt>
      <trkpt lat="46.08563" lon="6.72748">
        <ele>762</ele>
        <time>2024-05-14T17:42:07.625Z</time>
      </trkpt>
      <trkpt lat="46.08543" lon="6.72743">
        <ele>757</ele>
        <time>2024-05-14T17:42:17.717Z</time>
      </trkpt>
      <trkpt lat="46.08524" lon="6.72731">
        <ele>752</ele>
        <time>2024-05-14T17:42:28.031Z</time>
      </trkpt>
      <trkpt lat="46.08508" lon="6.72735">
        <ele>746</ele>
        <time>2024-05-14T17:42:36.105Z</time>
      </trkpt>
      <trkpt lat="46.08506" lon="6.72779">
        <ele>740</ele>
        <time>2024-05-14T17:42:51.311Z</time>
      </trkpt>
      <trkpt lat="46.08496" lon="6.72795">
        <ele>733</ele>
        <time>2024-05-14T17:42:58.738Z</time>
      </trkpt>
      <trkpt lat="46.08475" lon="6.7278">
        <ele>730</ele>
        <time>2024-05-14T17:43:10.391Z</time>
      </trkpt>
      <trkpt lat="46.08454" lon="6.72778">
        <ele>722</ele>
        <time>2024-05-14T17:43:20.855Z</time>
      </trkpt>
      <trkpt lat="46.08433" lon="6.72763">
        <ele>715</ele>
        <time>2024-05-14T17:43:32.507Z</time>
      </trkpt>
      <trkpt lat="46.08422" lon="6.72775">
        <ele>710</ele>
        <time>2024-05-14T17:43:39.366Z</time>
      </trkpt>
      <trkpt lat="46.08409" lon="6.72793">
        <ele>707</ele>
        <time>2024-05-14T17:43:48.328Z</time>
      </trkpt>
      <trkpt lat="46.0839" lon="6.72793">
        <ele>706</ele>
        <time>2024-05-14T17:43:57.775Z</time>
      </trkpt>
      <trkpt lat="46.08387" lon="6.72762">
        <ele>705</ele>
        <time>2024-05-14T17:44:08.569Z</time>
      </trkpt>
      <trkpt lat="46.0837" lon="6.72737">
        <ele>703</ele>
        <time>2024-05-14T17:44:20.643Z</time>
      </trkpt>
      <trkpt lat="46.08343" lon="6.72726">
        <ele>703</ele>
        <time>2024-05-14T17:44:36.586Z</time>
      </trkpt>
      <trkpt lat="46.08315" lon="6.72719">
        <ele>703</ele>
        <time>2024-05-14T17:44:52.734Z</time>
      </trkpt>
      <trkpt lat="46.08293" lon="6.72716">
        <ele>703</ele>
        <time>2024-05-14T17:45:05.291Z</time>
      </trkpt>
      <trkpt lat="46.08275" lon="6.72708">
        <ele>703</ele>
        <time>2024-05-14T17:45:15.994Z</time>
      </trkpt>
      <trkpt lat="46.08246" lon="6.72706">
        <ele>703</ele>
        <time>2024-05-14T17:45:32.492Z</time>
      </trkpt>
      <trkpt lat="46.08223" lon="6.7271">
        <ele>703</ele>
        <time>2024-05-14T17:45:45.656Z</time>
      </trkpt>
      <trkpt lat="46.08191" lon="6.72714">
        <ele>703</ele>
        <time>2024-05-14T17:46:03.908Z</time>
      </trkpt>
      <trkpt lat="46.08172" lon="6.72714">
        <ele>703</ele>
        <time>2024-05-14T17:46:14.704Z</time>
      </trkpt>
      <trkpt lat="46.08141" lon="6.72714">
        <ele>703</ele>
        <time>2024-05-14T17:46:32.319Z</time>
      </trkpt>
      <trkpt lat="46.08122" lon="6.72714">
        <ele>703</ele>
        <time>2024-05-14T17:46:43.116Z</time>
      </trkpt>
      <trkpt lat="46.08094" lon="6.72717">
        <ele>703</ele>
        <time>2024-05-14T17:46:59.070Z</time>
      </trkpt>
      <trkpt lat="46.08073" lon="6.72727">
        <ele>703</ele>
        <time>2024-05-14T17:47:11.637Z</time>
      </trkpt>
      <trkpt lat="46.08044" lon="6.72743">
        <ele>704</ele>
        <time>2024-05-14T17:47:31.160Z</time>
      </trkpt>
      <trkpt lat="46.08024" lon="6.7278">
        <ele>704</ele>
        <time>2024-05-14T17:47:49.649Z</time>
      </trkpt>
      <trkpt lat="46.08007" lon="6.72804">
        <ele>704</ele>
        <time>2024-05-14T17:48:03.169Z</time>
      </trkpt>
      <trkpt lat="46.07989" lon="6.72838">
        <ele>705</ele>
        <time>2024-05-14T17:48:21.912Z</time>
      </trkpt>
      <trkpt lat="46.07967" lon="6.72879">
        <ele>705</ele>
        <time>2024-05-14T17:48:42.344Z</time>
      </trkpt>
      <trkpt lat="46.07948" lon="6.72915">
        <ele>706</ele>
        <time>2024-05-14T17:49:02.051Z</time>
      </trkpt>
      <trkpt lat="46.07933" lon="6.72941">
        <ele>709</ele>
        <time>2024-05-14T17:49:22.477Z</time>
      </trkpt>
      <trkpt lat="46.07922" lon="6.72963">
        <ele>709</ele>
        <time>2024-05-14T17:49:33.167Z</time>
      </trkpt>
      <trkpt lat="46.07902" lon="6.72937">
        <ele>709</ele>
        <time>2024-05-14T17:49:48.470Z</time>
      </trkpt>
      <trkpt lat="46.07884" lon="6.72919">
        <ele>708</ele>
        <time>2024-05-14T17:49:59.362Z</time>
      </trkpt>
      <trkpt lat="46.07868" lon="6.72905">
        <ele>708</ele>
        <time>2024-05-14T17:50:09.997Z</time>
      </trkpt>
      <trkpt lat="46.07845" lon="6.72888">
        <ele>708</ele>
        <time>2024-05-14T17:50:24.685Z</time>
      </trkpt>
      <trkpt lat="46.07826" lon="6.72871">
        <ele>706</ele>
        <time>2024-05-14T17:50:35.803Z</time>
      </trkpt>
      <trkpt lat="46.07793" lon="6.72833">
        <ele>706</ele>
        <time>2024-05-14T17:50:59.803Z</time>
      </trkpt>
      <trkpt lat="46.07777" lon="6.72814">
        <ele>706</ele>
        <time>2024-05-14T17:51:11.582Z</time>
      </trkpt>
      <trkpt lat="46.07743" lon="6.72778">
        <ele>705</ele>
        <time>2024-05-14T17:51:33.890Z</time>
      </trkpt>
      <trkpt lat="46.07722" lon="6.72755">
        <ele>705</ele>
        <time>2024-05-14T17:51:48.876Z</time>
      </trkpt>
      <trkpt lat="46.07695" lon="6.7273">
        <ele>704</ele>
        <time>2024-05-14T17:52:05.473Z</time>
      </trkpt>
      <trkpt lat="46.07674" lon="6.72713">
        <ele>704</ele>
        <time>2024-05-14T17:52:19.159Z</time>
      </trkpt>
      <trkpt lat="46.07648" lon="6.727">
        <ele>703</ele>
        <time>2024-05-14T17:52:33.176Z</time>
      </trkpt>
      <trkpt lat="46.07626" lon="6.72694">
        <ele>703</ele>
        <time>2024-05-14T17:52:45.899Z</time>
      </trkpt>
      <trkpt lat="46.07598" lon="6.72693">
        <ele>702</ele>
        <time>2024-05-14T17:53:00.192Z</time>
      </trkpt>
      <trkpt lat="46.07558" lon="6.72691">
        <ele>701</ele>
        <time>2024-05-14T17:53:21.277Z</time>
      </trkpt>
      <trkpt lat="46.07534" lon="6.72676">
        <ele>700</ele>
        <time>2024-05-14T17:53:34.527Z</time>
      </trkpt>
      <trkpt lat="46.0752" lon="6.72649">
        <ele>699</ele>
        <time>2024-05-14T17:53:46.216Z</time>
      </trkpt>
      <trkpt lat="46.0751" lon="6.7262">
        <ele>699</ele>
        <time>2024-05-14T17:53:58.982Z</time>
      </trkpt>
      <trkpt lat="46.07505" lon="6.72593">
        <ele>699</ele>
        <time>2024-05-14T17:54:09.998Z</time>
      </trkpt>
      <trkpt lat="46.07516" lon="6.72525">
        <ele>697</ele>
        <time>2024-05-14T17:54:34.314Z</time>
      </trkpt>
      <trkpt lat="46.07526" lon="6.72486">
        <ele>697</ele>
        <time>2024-05-14T17:54:50.704Z</time>
      </trkpt>
      <trkpt lat="46.07535" lon="6.72455">
        <ele>697</ele>
        <time>2024-05-14T17:55:03.951Z</time>
      </trkpt>
      <trkpt lat="46.07544" lon="6.72423">
        <ele>697</ele>
        <time>2024-05-14T17:55:17.562Z</time>
      </trkpt>
      <trkpt lat="46.07553" lon="6.72391">
        <ele>697</ele>
        <time>2024-05-14T17:55:31.174Z</time>
      </trkpt>
      <trkpt lat="46.07563" lon="6.72356">
        <ele>696</ele>
        <time>2024-05-14T17:55:44.480Z</time>
      </trkpt>
      <trkpt lat="46.07574" lon="6.7232">
        <ele>695</ele>
        <time>2024-05-14T17:55:58.367Z</time>
      </trkpt>
      <trkpt lat="46.0759" lon="6.72268">
        <ele>695</ele>
        <time>2024-05-14T17:56:20.791Z</time>
      </trkpt>
      <trkpt lat="46.07601" lon="6.72214">
        <ele>695</ele>
        <time>2024-05-14T17:56:42.976Z</time>
      </trkpt>
      <trkpt lat="46.07604" lon="6.72174">
        <ele>695</ele>
        <time>2024-05-14T17:56:58.835Z</time>
      </trkpt>
      <trkpt lat="46.07608" lon="6.72137">
        <ele>694</ele>
        <time>2024-05-14T17:57:11.983Z</time>
      </trkpt>
      <trkpt lat="46.07613" lon="6.72109">
        <ele>694</ele>
        <time>2024-05-14T17:57:23.380Z</time>
      </trkpt>
      <trkpt lat="46.07621" lon="6.72069">
        <ele>694</ele>
        <time>2024-05-14T17:57:39.790Z</time>
      </trkpt>
      <trkpt lat="46.07623" lon="6.72025">
        <ele>694</ele>
        <time>2024-05-14T17:57:57.171Z</time>
      </trkpt>
      <trkpt lat="46.07629" lon="6.71985">
        <ele>694</ele>
        <time>2024-05-14T17:58:13.303Z</time>
      </trkpt>
      <trkpt lat="46.07633" lon="6.71953">
        <ele>694</ele>
        <time>2024-05-14T17:58:26.120Z</time>
      </trkpt>
      <trkpt lat="46.0763" lon="6.71917">
        <ele>694</ele>
        <time>2024-05-14T17:58:40.413Z</time>
      </trkpt>
      <trkpt lat="46.07629" lon="6.71887">
        <ele>694</ele>
        <time>2024-05-14T17:58:52.252Z</time>
      </trkpt>
      <trkpt lat="46.07633" lon="6.7186">
        <ele>694</ele>
        <time>2024-05-14T17:59:03.135Z</time>
      </trkpt>
      <trkpt lat="46.07647" lon="6.71823">
        <ele>692</ele>
        <time>2024-05-14T17:59:17.672Z</time>
      </trkpt>
      <trkpt lat="46.07649" lon="6.71795">
        <ele>692</ele>
        <time>2024-05-14T17:59:28.767Z</time>
      </trkpt>
      <trkpt lat="46.07656" lon="6.71744">
        <ele>692</ele>
        <time>2024-05-14T17:59:49.260Z</time>
      </trkpt>
      <trkpt lat="46.0766" lon="6.71716">
        <ele>692</ele>
        <time>2024-05-14T18:00:00.529Z</time>
      </trkpt>
      <trkpt lat="46.07665" lon="6.71673">
        <ele>692</ele>
        <time>2024-05-14T18:00:17.715Z</time>
      </trkpt>
      <trkpt lat="46.07669" lon="6.71632">
        <ele>690</ele>
        <time>2024-05-14T18:00:31.996Z</time>
      </trkpt>
      <trkpt lat="46.07678" lon="6.71593">
        <ele>690</ele>
        <time>2024-05-14T18:00:48.197Z</time>
      </trkpt>
      <trkpt lat="46.07685" lon="6.71567">
        <ele>690</ele>
        <time>2024-05-14T18:00:59.190Z</time>
      </trkpt>
      <trkpt lat="46.07693" lon="6.7154">
        <ele>690</ele>
        <time>2024-05-14T18:01:10.764Z</time>
      </trkpt>
      <trkpt lat="46.07702" lon="6.71511">
        <ele>691</ele>
        <time>2024-05-14T18:01:25.222Z</time>
      </trkpt>
      <trkpt lat="46.07715" lon="6.71492">
        <ele>691</ele>
        <time>2024-05-14T18:01:35.741Z</time>
      </trkpt>
      <trkpt lat="46.07735" lon="6.71467">
        <ele>689</ele>
        <time>2024-05-14T18:01:48.903Z</time>
      </trkpt>
      <trkpt lat="46.07735" lon="6.71442">
        <ele>689</ele>
        <time>2024-05-14T18:01:58.758Z</time>
      </trkpt>
      <trkpt lat="46.07752" lon="6.71418">
        <ele>690</ele>
        <time>2024-05-14T18:02:14.199Z</time>
      </trkpt>
      <trkpt lat="46.07768" lon="6.71398">
        <ele>690</ele>
        <time>2024-05-14T18:02:26.233Z</time>
      </trkpt>
      <trkpt lat="46.07783" lon="6.71371">
        <ele>689</ele>
        <time>2024-05-14T18:02:38.265Z</time>
      </trkpt>
      <trkpt lat="46.078" lon="6.7132">
        <ele>689</ele>
        <time>2024-05-14T18:03:00.569Z</time>
      </trkpt>
      <trkpt lat="46.07813" lon="6.71284">
        <ele>689</ele>
        <time>2024-05-14T18:03:16.566Z</time>
      </trkpt>
      <trkpt lat="46.07821" lon="6.71258">
        <ele>689</ele>
        <time>2024-05-14T18:03:27.778Z</time>
      </trkpt>
      <trkpt lat="46.07838" lon="6.71229">
        <ele>688</ele>
        <time>2024-05-14T18:03:41.129Z</time>
      </trkpt>
      <trkpt lat="46.07851" lon="6.71207">
        <ele>688</ele>
        <time>2024-05-14T18:03:52.521Z</time>
      </trkpt>
      <trkpt lat="46.07866" lon="6.71183">
        <ele>688</ele>
        <time>2024-05-14T18:04:05.254Z</time>
      </trkpt>
      <trkpt lat="46.07877" lon="6.71145">
        <ele>687</ele>
        <time>2024-05-14T18:04:19.860Z</time>
      </trkpt>
      <trkpt lat="46.0788" lon="6.71111">
        <ele>687</ele>
        <time>2024-05-14T18:04:33.369Z</time>
      </trkpt>
      <trkpt lat="46.07884" lon="6.7108">
        <ele>687</ele>
        <time>2024-05-14T18:04:45.798Z</time>
      </trkpt>
      <trkpt lat="46.0789" lon="6.71048">
        <ele>687</ele>
        <time>2024-05-14T18:04:58.864Z</time>
      </trkpt>
      <trkpt lat="46.07899" lon="6.71023">
        <ele>687</ele>
        <time>2024-05-14T18:05:09.966Z</time>
      </trkpt>
      <trkpt lat="46.07922" lon="6.71013">
        <ele>686</ele>
        <time>2024-05-14T18:05:22.014Z</time>
      </trkpt>
      <trkpt lat="46.07945" lon="6.71003">
        <ele>686</ele>
        <time>2024-05-14T18:05:35.665Z</time>
      </trkpt>
      <trkpt lat="46.07956" lon="6.70981">
        <ele>686</ele>
        <time>2024-05-14T18:05:46.355Z</time>
      </trkpt>
      <trkpt lat="46.07971" lon="6.70941">
        <ele>686</ele>
        <time>2024-05-14T18:06:04.278Z</time>
      </trkpt>
      <trkpt lat="46.0798" lon="6.70916">
        <ele>686</ele>
        <time>2024-05-14T18:06:15.380Z</time>
      </trkpt>
      <trkpt lat="46.08002" lon="6.70887">
        <ele>685</ele>
        <time>2024-05-14T18:06:30.689Z</time>
      </trkpt>
      <trkpt lat="46.08026" lon="6.70881">
        <ele>685</ele>
        <time>2024-05-14T18:06:44.531Z</time>
      </trkpt>
      <trkpt lat="46.08046" lon="6.70884">
        <ele>685</ele>
        <time>2024-05-14T18:06:55.957Z</time>
      </trkpt>
      <trkpt lat="46.08069" lon="6.70879">
        <ele>685</ele>
        <time>2024-05-14T18:07:09.174Z</time>
      </trkpt>
      <trkpt lat="46.08081" lon="6.70895">
        <ele>685</ele>
        <time>2024-05-14T18:07:18.462Z</time>
      </trkpt>
      <trkpt lat="46.08095" lon="6.70913">
        <ele>685</ele>
        <time>2024-05-14T18:07:29.121Z</time>
      </trkpt>
      <trkpt lat="46.08109" lon="6.70937">
        <ele>685</ele>
        <time>2024-05-14T18:07:41.481Z</time>
      </trkpt>
      <trkpt lat="46.08128" lon="6.70956">
        <ele>685</ele>
        <time>2024-05-14T18:07:54.621Z</time>
      </trkpt>
      <trkpt lat="46.08138" lon="6.70983">
        <ele>685</ele>
        <time>2024-05-14T18:08:06.685Z</time>
      </trkpt>
      <trkpt lat="46.08139" lon="6.71021">
        <ele>685</ele>
        <time>2024-05-14T18:08:21.673Z</time>
      </trkpt>
      <trkpt lat="46.08132" lon="6.71058">
        <ele>685</ele>
        <time>2024-05-14T18:08:36.789Z</time>
      </trkpt>
      <trkpt lat="46.08119" lon="6.71078">
        <ele>685</ele>
        <time>2024-05-14T18:08:47.593Z</time>
      </trkpt>
      <trkpt lat="46.08107" lon="6.711">
        <ele>685</ele>
        <time>2024-05-14T18:08:58.624Z</time>
      </trkpt>
      <trkpt lat="46.08086" lon="6.71118">
        <ele>685</ele>
        <time>2024-05-14T18:09:12.507Z</time>
      </trkpt>
      <trkpt lat="46.08074" lon="6.7115">
        <ele>686</ele>
        <time>2024-05-14T18:09:28.755Z</time>
      </trkpt>
      <trkpt lat="46.08056" lon="6.71182">
        <ele>686</ele>
        <time>2024-05-14T18:09:44.994Z</time>
      </trkpt>
      <trkpt lat="46.08036" lon="6.712">
        <ele>686</ele>
        <time>2024-05-14T18:09:58.391Z</time>
      </trkpt>
      <trkpt lat="46.08" lon="6.71217">
        <ele>687</ele>
        <time>2024-05-14T18:10:21.771Z</time>
      </trkpt>
      <trkpt lat="46.07973" lon="6.71235">
        <ele>687</ele>
        <time>2024-05-14T18:10:38.674Z</time>
      </trkpt>
      <trkpt lat="46.07955" lon="6.71263">
        <ele>688</ele>
        <time>2024-05-14T18:10:55.623Z</time>
      </trkpt>
      <trkpt lat="46.07943" lon="6.71301">
        <ele>688</ele>
        <time>2024-05-14T18:11:12.081Z</time>
      </trkpt>
      <trkpt lat="46.07937" lon="6.71333">
        <ele>688</ele>
        <time>2024-05-14T18:11:25.147Z</time>
      </trkpt>
      <trkpt lat="46.07934" lon="6.71353">
        <ele>688</ele>
        <time>2024-05-14T18:11:33.212Z</time>
      </trkpt>
    </trkseg>
  </trk>
</gpx>